<?xml version="1.0" encoding="UTF-8" standalone="no" ?>
<gpx xmlns="http://www.topografix.com/GPX/1/1" xmlns:xsi="http://www.w3.org/2001/XMLSchema-instance" xsi:schemaLocation="http://www.topografix.com/GPX/1/1 http://www.topografix.com/GPX/1/1/gpx.xsd" version="1.1" creator="VisuGPX - https://www.visugpx.com">
  <metadata>
    <name>Le Bois de Païolive (Ardèche)</name>
    <desc><![CDATA[Parcours mythique de 7,5km en boucle]]></desc>
  </metadata>
  <trk>
    <name><![CDATA[Le Bois de Païolive_R1]]></name>
    <trkseg>
      <trkpt lat="44.39611" lon="4.17181">
        <ele>234.53</ele>
        <time>2021-08-11T08:01:50Z</time>
      </trkpt>
      <trkpt lat="44.39612" lon="4.17178">
        <ele>234.15</ele>
        <time>2021-08-11T08:02:09Z</time>
      </trkpt>
      <trkpt lat="44.39613" lon="4.17175">
        <ele>235</ele>
        <time>2021-08-11T08:02:24Z</time>
      </trkpt>
      <trkpt lat="44.39613" lon="4.17173">
        <ele>234.68</ele>
        <time>2021-08-11T08:02:41Z</time>
      </trkpt>
      <trkpt lat="44.39613" lon="4.17173">
        <ele>234.43</ele>
        <time>2021-08-11T08:03:02Z</time>
      </trkpt>
      <trkpt lat="44.39614" lon="4.17172">
        <ele>234.43</ele>
        <time>2021-08-11T08:03:21Z</time>
      </trkpt>
      <trkpt lat="44.39617" lon="4.17172">
        <ele>234.22</ele>
        <time>2021-08-11T08:03:38Z</time>
      </trkpt>
      <trkpt lat="44.39622" lon="4.17176">
        <ele>234.46</ele>
        <time>2021-08-11T08:03:48Z</time>
      </trkpt>
      <trkpt lat="44.39631" lon="4.17181">
        <ele>234.15</ele>
        <time>2021-08-11T08:04:00Z</time>
      </trkpt>
      <trkpt lat="44.39641" lon="4.17184">
        <ele>233.51</ele>
        <time>2021-08-11T08:04:12Z</time>
      </trkpt>
      <trkpt lat="44.39646" lon="4.17181">
        <ele>233.63</ele>
        <time>2021-08-11T08:04:18Z</time>
      </trkpt>
      <trkpt lat="44.39652" lon="4.17183">
        <ele>233.61</ele>
        <time>2021-08-11T08:04:28Z</time>
      </trkpt>
      <trkpt lat="44.39654" lon="4.17185">
        <ele>233.53</ele>
        <time>2021-08-11T08:04:44Z</time>
      </trkpt>
      <trkpt lat="44.39654" lon="4.17176">
        <ele>233.77</ele>
        <time>2021-08-11T08:04:57Z</time>
      </trkpt>
      <trkpt lat="44.39664" lon="4.17167">
        <ele>233.17</ele>
        <time>2021-08-11T08:05:10Z</time>
      </trkpt>
      <trkpt lat="44.39666" lon="4.17166">
        <ele>233.72</ele>
        <time>2021-08-11T08:05:13Z</time>
      </trkpt>
      <trkpt lat="44.39672" lon="4.17164">
        <ele>234.1</ele>
        <time>2021-08-11T08:05:22Z</time>
      </trkpt>
      <trkpt lat="44.39667" lon="4.17167">
        <ele>232.67</ele>
        <time>2021-08-11T08:05:32Z</time>
      </trkpt>
      <trkpt lat="44.39657" lon="4.17174">
        <ele>233.07</ele>
        <time>2021-08-11T08:05:42Z</time>
      </trkpt>
      <trkpt lat="44.39647" lon="4.1718">
        <ele>232.35</ele>
        <time>2021-08-11T08:05:53Z</time>
      </trkpt>
      <trkpt lat="44.39649" lon="4.17179">
        <ele>232.29</ele>
        <time>2021-08-11T08:06:05Z</time>
      </trkpt>
      <trkpt lat="44.3965" lon="4.17178">
        <ele>232.12</ele>
        <time>2021-08-11T08:06:07Z</time>
      </trkpt>
      <trkpt lat="44.39653" lon="4.17173">
        <ele>232.56</ele>
        <time>2021-08-11T08:06:12Z</time>
      </trkpt>
      <trkpt lat="44.39662" lon="4.17167">
        <ele>232.9</ele>
        <time>2021-08-11T08:06:22Z</time>
      </trkpt>
      <trkpt lat="44.3967" lon="4.17161">
        <ele>233.35</ele>
        <time>2021-08-11T08:06:36Z</time>
      </trkpt>
      <trkpt lat="44.39675" lon="4.17153">
        <ele>233.2</ele>
        <time>2021-08-11T08:06:47Z</time>
      </trkpt>
      <trkpt lat="44.39685" lon="4.17144">
        <ele>233.6</ele>
        <time>2021-08-11T08:07:01Z</time>
      </trkpt>
      <trkpt lat="44.39698" lon="4.17142">
        <ele>234.75</ele>
        <time>2021-08-11T08:07:16Z</time>
      </trkpt>
      <trkpt lat="44.39703" lon="4.17143">
        <ele>235.33</ele>
        <time>2021-08-11T08:07:21Z</time>
      </trkpt>
      <trkpt lat="44.39716" lon="4.17152">
        <ele>235.86</ele>
        <time>2021-08-11T08:07:33Z</time>
      </trkpt>
      <trkpt lat="44.39725" lon="4.17161">
        <ele>236.16</ele>
        <time>2021-08-11T08:07:49Z</time>
      </trkpt>
      <trkpt lat="44.3973" lon="4.17156">
        <ele>236.63</ele>
        <time>2021-08-11T08:07:59Z</time>
      </trkpt>
      <trkpt lat="44.39732" lon="4.1715">
        <ele>237.73</ele>
        <time>2021-08-11T08:08:12Z</time>
      </trkpt>
      <trkpt lat="44.39736" lon="4.17146">
        <ele>238.49</ele>
        <time>2021-08-11T08:08:23Z</time>
      </trkpt>
      <trkpt lat="44.39742" lon="4.1714">
        <ele>239.93</ele>
        <time>2021-08-11T08:08:34Z</time>
      </trkpt>
      <trkpt lat="44.39745" lon="4.17132">
        <ele>239.08</ele>
        <time>2021-08-11T08:08:43Z</time>
      </trkpt>
      <trkpt lat="44.39745" lon="4.17125">
        <ele>238.62</ele>
        <time>2021-08-11T08:08:53Z</time>
      </trkpt>
      <trkpt lat="44.39749" lon="4.17121">
        <ele>239.6</ele>
        <time>2021-08-11T08:09:04Z</time>
      </trkpt>
      <trkpt lat="44.39754" lon="4.17114">
        <ele>238.96</ele>
        <time>2021-08-11T08:09:15Z</time>
      </trkpt>
      <trkpt lat="44.39763" lon="4.17115">
        <ele>239.71</ele>
        <time>2021-08-11T08:09:26Z</time>
      </trkpt>
      <trkpt lat="44.39768" lon="4.17114">
        <ele>240.35</ele>
        <time>2021-08-11T08:09:35Z</time>
      </trkpt>
      <trkpt lat="44.39771" lon="4.17114">
        <ele>240.54</ele>
        <time>2021-08-11T08:09:38Z</time>
      </trkpt>
      <trkpt lat="44.39784" lon="4.17111">
        <ele>242.11</ele>
        <time>2021-08-11T08:09:52Z</time>
      </trkpt>
      <trkpt lat="44.39785" lon="4.1711">
        <ele>241.95</ele>
        <time>2021-08-11T08:09:54Z</time>
      </trkpt>
      <trkpt lat="44.39793" lon="4.17102">
        <ele>243.15</ele>
        <time>2021-08-11T08:10:05Z</time>
      </trkpt>
      <trkpt lat="44.39799" lon="4.17089">
        <ele>245.17</ele>
        <time>2021-08-11T08:10:18Z</time>
      </trkpt>
      <trkpt lat="44.39805" lon="4.17082">
        <ele>246.19</ele>
        <time>2021-08-11T08:10:29Z</time>
      </trkpt>
      <trkpt lat="44.39807" lon="4.17078">
        <ele>245.02</ele>
        <time>2021-08-11T08:10:35Z</time>
      </trkpt>
      <trkpt lat="44.39808" lon="4.17076">
        <ele>246.94</ele>
        <time>2021-08-11T08:10:40Z</time>
      </trkpt>
      <trkpt lat="44.39811" lon="4.1707">
        <ele>247.11</ele>
        <time>2021-08-11T08:10:51Z</time>
      </trkpt>
      <trkpt lat="44.39818" lon="4.17066">
        <ele>246.98</ele>
        <time>2021-08-11T08:11:00Z</time>
      </trkpt>
      <trkpt lat="44.39826" lon="4.17068">
        <ele>248.28</ele>
        <time>2021-08-11T08:11:13Z</time>
      </trkpt>
      <trkpt lat="44.3983" lon="4.17068">
        <ele>248.62</ele>
        <time>2021-08-11T08:11:29Z</time>
      </trkpt>
      <trkpt lat="44.39832" lon="4.17068">
        <ele>248.48</ele>
        <time>2021-08-11T08:11:35Z</time>
      </trkpt>
      <trkpt lat="44.39837" lon="4.17071">
        <ele>249.29</ele>
        <time>2021-08-11T08:11:42Z</time>
      </trkpt>
      <trkpt lat="44.39845" lon="4.17077">
        <ele>249.24</ele>
        <time>2021-08-11T08:11:51Z</time>
      </trkpt>
      <trkpt lat="44.39856" lon="4.17082">
        <ele>249.31</ele>
        <time>2021-08-11T08:12:03Z</time>
      </trkpt>
      <trkpt lat="44.3986" lon="4.17085">
        <ele>249.4</ele>
        <time>2021-08-11T08:12:07Z</time>
      </trkpt>
      <trkpt lat="44.39871" lon="4.17087">
        <ele>249.58</ele>
        <time>2021-08-11T08:12:17Z</time>
      </trkpt>
      <trkpt lat="44.39882" lon="4.17093">
        <ele>249.32</ele>
        <time>2021-08-11T08:12:29Z</time>
      </trkpt>
      <trkpt lat="44.39895" lon="4.17101">
        <ele>249.17</ele>
        <time>2021-08-11T08:12:43Z</time>
      </trkpt>
      <trkpt lat="44.39905" lon="4.17107">
        <ele>248.4</ele>
        <time>2021-08-11T08:12:52Z</time>
      </trkpt>
      <trkpt lat="44.39907" lon="4.17108">
        <ele>248.19</ele>
        <time>2021-08-11T08:12:54Z</time>
      </trkpt>
      <trkpt lat="44.39915" lon="4.17112">
        <ele>247.51</ele>
        <time>2021-08-11T08:13:04Z</time>
      </trkpt>
      <trkpt lat="44.39917" lon="4.17112">
        <ele>247.56</ele>
        <time>2021-08-11T08:13:09Z</time>
      </trkpt>
      <trkpt lat="44.39922" lon="4.17112">
        <ele>246.92</ele>
        <time>2021-08-11T08:13:14Z</time>
      </trkpt>
      <trkpt lat="44.39932" lon="4.17119">
        <ele>245.98</ele>
        <time>2021-08-11T08:13:25Z</time>
      </trkpt>
      <trkpt lat="44.3994" lon="4.17125">
        <ele>245.51</ele>
        <time>2021-08-11T08:13:33Z</time>
      </trkpt>
      <trkpt lat="44.39942" lon="4.17126">
        <ele>245.81</ele>
        <time>2021-08-11T08:13:35Z</time>
      </trkpt>
      <trkpt lat="44.3995" lon="4.17135">
        <ele>244.15</ele>
        <time>2021-08-11T08:13:44Z</time>
      </trkpt>
      <trkpt lat="44.39961" lon="4.17143">
        <ele>243.13</ele>
        <time>2021-08-11T08:13:55Z</time>
      </trkpt>
      <trkpt lat="44.39963" lon="4.17144">
        <ele>243.15</ele>
        <time>2021-08-11T08:13:57Z</time>
      </trkpt>
      <trkpt lat="44.39966" lon="4.17145">
        <ele>242.6</ele>
        <time>2021-08-11T08:14:00Z</time>
      </trkpt>
      <trkpt lat="44.39969" lon="4.17146">
        <ele>242.58</ele>
        <time>2021-08-11T08:14:03Z</time>
      </trkpt>
      <trkpt lat="44.39975" lon="4.17148">
        <ele>242.19</ele>
        <time>2021-08-11T08:14:07Z</time>
      </trkpt>
      <trkpt lat="44.39985" lon="4.17146">
        <ele>241.04</ele>
        <time>2021-08-11T08:14:16Z</time>
      </trkpt>
      <trkpt lat="44.40001" lon="4.17146">
        <ele>240.51</ele>
        <time>2021-08-11T08:14:31Z</time>
      </trkpt>
      <trkpt lat="44.40008" lon="4.17145">
        <ele>239.2</ele>
        <time>2021-08-11T08:14:38Z</time>
      </trkpt>
      <trkpt lat="44.40015" lon="4.17144">
        <ele>238.75</ele>
        <time>2021-08-11T08:14:44Z</time>
      </trkpt>
      <trkpt lat="44.40017" lon="4.17145">
        <ele>238.79</ele>
        <time>2021-08-11T08:14:46Z</time>
      </trkpt>
      <trkpt lat="44.40023" lon="4.17145">
        <ele>238.14</ele>
        <time>2021-08-11T08:14:51Z</time>
      </trkpt>
      <trkpt lat="44.40034" lon="4.17151">
        <ele>237.01</ele>
        <time>2021-08-11T08:15:01Z</time>
      </trkpt>
      <trkpt lat="44.40039" lon="4.17153">
        <ele>236.75</ele>
        <time>2021-08-11T08:15:06Z</time>
      </trkpt>
      <trkpt lat="44.4005" lon="4.17159">
        <ele>236.02</ele>
        <time>2021-08-11T08:15:16Z</time>
      </trkpt>
      <trkpt lat="44.40054" lon="4.17159">
        <ele>236.17</ele>
        <time>2021-08-11T08:15:20Z</time>
      </trkpt>
      <trkpt lat="44.40057" lon="4.1716">
        <ele>235.6</ele>
        <time>2021-08-11T08:15:22Z</time>
      </trkpt>
      <trkpt lat="44.40066" lon="4.17159">
        <ele>235.12</ele>
        <time>2021-08-11T08:15:30Z</time>
      </trkpt>
      <trkpt lat="44.40078" lon="4.17159">
        <ele>234.86</ele>
        <time>2021-08-11T08:15:40Z</time>
      </trkpt>
      <trkpt lat="44.40083" lon="4.17158">
        <ele>234.31</ele>
        <time>2021-08-11T08:15:45Z</time>
      </trkpt>
      <trkpt lat="44.40095" lon="4.17152">
        <ele>233.24</ele>
        <time>2021-08-11T08:15:57Z</time>
      </trkpt>
      <trkpt lat="44.4011" lon="4.17153">
        <ele>232.5</ele>
        <time>2021-08-11T08:16:10Z</time>
      </trkpt>
      <trkpt lat="44.40119" lon="4.17168">
        <ele>232.39</ele>
        <time>2021-08-11T08:16:21Z</time>
      </trkpt>
      <trkpt lat="44.40123" lon="4.17186">
        <ele>232.99</ele>
        <time>2021-08-11T08:16:36Z</time>
      </trkpt>
      <trkpt lat="44.40126" lon="4.17197">
        <ele>233.26</ele>
        <time>2021-08-11T08:16:46Z</time>
      </trkpt>
      <trkpt lat="44.40129" lon="4.17209">
        <ele>233.34</ele>
        <time>2021-08-11T08:16:54Z</time>
      </trkpt>
      <trkpt lat="44.40131" lon="4.17221">
        <ele>233.94</ele>
        <time>2021-08-11T08:17:04Z</time>
      </trkpt>
      <trkpt lat="44.40133" lon="4.17226">
        <ele>233.29</ele>
        <time>2021-08-11T08:17:09Z</time>
      </trkpt>
      <trkpt lat="44.40136" lon="4.1724">
        <ele>232.81</ele>
        <time>2021-08-11T08:17:19Z</time>
      </trkpt>
      <trkpt lat="44.40138" lon="4.17253">
        <ele>233.22</ele>
        <time>2021-08-11T08:17:29Z</time>
      </trkpt>
      <trkpt lat="44.40138" lon="4.17255">
        <ele>233.12</ele>
        <time>2021-08-11T08:17:30Z</time>
      </trkpt>
      <trkpt lat="44.4014" lon="4.17268">
        <ele>233.39</ele>
        <time>2021-08-11T08:17:39Z</time>
      </trkpt>
      <trkpt lat="44.40141" lon="4.17274">
        <ele>233.17</ele>
        <time>2021-08-11T08:17:42Z</time>
      </trkpt>
      <trkpt lat="44.40143" lon="4.17293">
        <ele>233.92</ele>
        <time>2021-08-11T08:17:55Z</time>
      </trkpt>
      <trkpt lat="44.40146" lon="4.17306">
        <ele>234.24</ele>
        <time>2021-08-11T08:18:05Z</time>
      </trkpt>
      <trkpt lat="44.40153" lon="4.17313">
        <ele>235.77</ele>
        <time>2021-08-11T08:18:17Z</time>
      </trkpt>
      <trkpt lat="44.40159" lon="4.17315">
        <ele>235.28</ele>
        <time>2021-08-11T08:18:29Z</time>
      </trkpt>
      <trkpt lat="44.4016" lon="4.17318">
        <ele>235.33</ele>
        <time>2021-08-11T08:18:52Z</time>
      </trkpt>
      <trkpt lat="44.40161" lon="4.17319">
        <ele>235.38</ele>
        <time>2021-08-11T08:19:13Z</time>
      </trkpt>
      <trkpt lat="44.40171" lon="4.1732">
        <ele>235.18</ele>
        <time>2021-08-11T08:19:23Z</time>
      </trkpt>
      <trkpt lat="44.40175" lon="4.17321">
        <ele>235.49</ele>
        <time>2021-08-11T08:19:27Z</time>
      </trkpt>
      <trkpt lat="44.40181" lon="4.17323">
        <ele>235.79</ele>
        <time>2021-08-11T08:19:33Z</time>
      </trkpt>
      <trkpt lat="44.40186" lon="4.17324">
        <ele>236.29</ele>
        <time>2021-08-11T08:19:37Z</time>
      </trkpt>
      <trkpt lat="44.4019" lon="4.17325">
        <ele>236.29</ele>
        <time>2021-08-11T08:19:42Z</time>
      </trkpt>
      <trkpt lat="44.40198" lon="4.17328">
        <ele>236.96</ele>
        <time>2021-08-11T08:19:50Z</time>
      </trkpt>
      <trkpt lat="44.40214" lon="4.17338">
        <ele>236.88</ele>
        <time>2021-08-11T08:20:05Z</time>
      </trkpt>
      <trkpt lat="44.40222" lon="4.17346">
        <ele>237.03</ele>
        <time>2021-08-11T08:20:15Z</time>
      </trkpt>
      <trkpt lat="44.40228" lon="4.17355">
        <ele>236.94</ele>
        <time>2021-08-11T08:20:26Z</time>
      </trkpt>
      <trkpt lat="44.40232" lon="4.17364">
        <ele>236.57</ele>
        <time>2021-08-11T08:20:36Z</time>
      </trkpt>
      <trkpt lat="44.40233" lon="4.17373">
        <ele>236.39</ele>
        <time>2021-08-11T08:20:47Z</time>
      </trkpt>
      <trkpt lat="44.40234" lon="4.17382">
        <ele>235.87</ele>
        <time>2021-08-11T08:20:55Z</time>
      </trkpt>
      <trkpt lat="44.40231" lon="4.174">
        <ele>235</ele>
        <time>2021-08-11T08:21:08Z</time>
      </trkpt>
      <trkpt lat="44.4023" lon="4.17403">
        <ele>234.76</ele>
        <time>2021-08-11T08:21:23Z</time>
      </trkpt>
      <trkpt lat="44.40226" lon="4.17407">
        <ele>234.65</ele>
        <time>2021-08-11T08:21:36Z</time>
      </trkpt>
      <trkpt lat="44.40226" lon="4.17408">
        <ele>234.6</ele>
        <time>2021-08-11T08:21:54Z</time>
      </trkpt>
      <trkpt lat="44.40225" lon="4.17412">
        <ele>234.46</ele>
        <time>2021-08-11T08:22:07Z</time>
      </trkpt>
      <trkpt lat="44.40223" lon="4.17417">
        <ele>234.69</ele>
        <time>2021-08-11T08:22:12Z</time>
      </trkpt>
      <trkpt lat="44.40218" lon="4.17427">
        <ele>235.4</ele>
        <time>2021-08-11T08:22:24Z</time>
      </trkpt>
      <trkpt lat="44.40211" lon="4.17438">
        <ele>236.66</ele>
        <time>2021-08-11T08:22:41Z</time>
      </trkpt>
      <trkpt lat="44.4021" lon="4.17452">
        <ele>238.14</ele>
        <time>2021-08-11T08:22:55Z</time>
      </trkpt>
      <trkpt lat="44.40211" lon="4.17456">
        <ele>238.04</ele>
        <time>2021-08-11T08:22:59Z</time>
      </trkpt>
      <trkpt lat="44.40212" lon="4.17466">
        <ele>238.48</ele>
        <time>2021-08-11T08:23:06Z</time>
      </trkpt>
      <trkpt lat="44.40211" lon="4.1748">
        <ele>237.9</ele>
        <time>2021-08-11T08:23:16Z</time>
      </trkpt>
      <trkpt lat="44.40209" lon="4.17483">
        <ele>238.24</ele>
        <time>2021-08-11T08:23:19Z</time>
      </trkpt>
      <trkpt lat="44.40207" lon="4.17487">
        <ele>238.06</ele>
        <time>2021-08-11T08:23:22Z</time>
      </trkpt>
      <trkpt lat="44.40204" lon="4.17503">
        <ele>236.85</ele>
        <time>2021-08-11T08:23:32Z</time>
      </trkpt>
      <trkpt lat="44.40198" lon="4.17517">
        <ele>237.1</ele>
        <time>2021-08-11T08:23:42Z</time>
      </trkpt>
      <trkpt lat="44.40199" lon="4.17529">
        <ele>236.25</ele>
        <time>2021-08-11T08:23:52Z</time>
      </trkpt>
      <trkpt lat="44.40204" lon="4.17545">
        <ele>235.2</ele>
        <time>2021-08-11T08:24:05Z</time>
      </trkpt>
      <trkpt lat="44.40214" lon="4.17557">
        <ele>233.91</ele>
        <time>2021-08-11T08:24:20Z</time>
      </trkpt>
      <trkpt lat="44.40222" lon="4.1757">
        <ele>233.18</ele>
        <time>2021-08-11T08:24:32Z</time>
      </trkpt>
      <trkpt lat="44.40226" lon="4.17576">
        <ele>232.51</ele>
        <time>2021-08-11T08:24:37Z</time>
      </trkpt>
      <trkpt lat="44.40235" lon="4.17588">
        <ele>232.32</ele>
        <time>2021-08-11T08:24:47Z</time>
      </trkpt>
      <trkpt lat="44.40239" lon="4.17596">
        <ele>232.19</ele>
        <time>2021-08-11T08:24:52Z</time>
      </trkpt>
      <trkpt lat="44.40242" lon="4.176">
        <ele>232.16</ele>
        <time>2021-08-11T08:24:55Z</time>
      </trkpt>
      <trkpt lat="44.40257" lon="4.17609">
        <ele>231.86</ele>
        <time>2021-08-11T08:25:11Z</time>
      </trkpt>
      <trkpt lat="44.40267" lon="4.17608">
        <ele>231.69</ele>
        <time>2021-08-11T08:25:24Z</time>
      </trkpt>
      <trkpt lat="44.40272" lon="4.17604">
        <ele>232.22</ele>
        <time>2021-08-11T08:25:29Z</time>
      </trkpt>
      <trkpt lat="44.40287" lon="4.17596">
        <ele>232.48</ele>
        <time>2021-08-11T08:25:42Z</time>
      </trkpt>
      <trkpt lat="44.40289" lon="4.17596">
        <ele>232.85</ele>
        <time>2021-08-11T08:25:44Z</time>
      </trkpt>
      <trkpt lat="44.40299" lon="4.17598">
        <ele>233.79</ele>
        <time>2021-08-11T08:25:52Z</time>
      </trkpt>
      <trkpt lat="44.40303" lon="4.17602">
        <ele>233.57</ele>
        <time>2021-08-11T08:26:02Z</time>
      </trkpt>
      <trkpt lat="44.40309" lon="4.17608">
        <ele>234.14</ele>
        <time>2021-08-11T08:26:15Z</time>
      </trkpt>
      <trkpt lat="44.40317" lon="4.1762">
        <ele>235.23</ele>
        <time>2021-08-11T08:26:27Z</time>
      </trkpt>
      <trkpt lat="44.40319" lon="4.17624">
        <ele>235.44</ele>
        <time>2021-08-11T08:26:30Z</time>
      </trkpt>
      <trkpt lat="44.40327" lon="4.17636">
        <ele>237.53</ele>
        <time>2021-08-11T08:26:41Z</time>
      </trkpt>
      <trkpt lat="44.40333" lon="4.17647">
        <ele>239.43</ele>
        <time>2021-08-11T08:26:51Z</time>
      </trkpt>
      <trkpt lat="44.4034" lon="4.17653">
        <ele>240.46</ele>
        <time>2021-08-11T08:27:01Z</time>
      </trkpt>
      <trkpt lat="44.40349" lon="4.17652">
        <ele>241.61</ele>
        <time>2021-08-11T08:27:13Z</time>
      </trkpt>
      <trkpt lat="44.40351" lon="4.1765">
        <ele>241.46</ele>
        <time>2021-08-11T08:27:24Z</time>
      </trkpt>
      <trkpt lat="44.40358" lon="4.17659">
        <ele>242.52</ele>
        <time>2021-08-11T08:27:34Z</time>
      </trkpt>
      <trkpt lat="44.40364" lon="4.17667">
        <ele>242.69</ele>
        <time>2021-08-11T08:27:45Z</time>
      </trkpt>
      <trkpt lat="44.4037" lon="4.17674">
        <ele>242.92</ele>
        <time>2021-08-11T08:27:55Z</time>
      </trkpt>
      <trkpt lat="44.40375" lon="4.17682">
        <ele>243.49</ele>
        <time>2021-08-11T08:28:06Z</time>
      </trkpt>
      <trkpt lat="44.40379" lon="4.17687">
        <ele>243.22</ele>
        <time>2021-08-11T08:28:15Z</time>
      </trkpt>
      <trkpt lat="44.40381" lon="4.17693">
        <ele>243.25</ele>
        <time>2021-08-11T08:28:19Z</time>
      </trkpt>
      <trkpt lat="44.40389" lon="4.17703">
        <ele>244.12</ele>
        <time>2021-08-11T08:28:30Z</time>
      </trkpt>
      <trkpt lat="44.40391" lon="4.17704">
        <ele>244.14</ele>
        <time>2021-08-11T08:28:32Z</time>
      </trkpt>
      <trkpt lat="44.40401" lon="4.17708">
        <ele>244.71</ele>
        <time>2021-08-11T08:28:44Z</time>
      </trkpt>
      <trkpt lat="44.4041" lon="4.17713">
        <ele>245.28</ele>
        <time>2021-08-11T08:28:55Z</time>
      </trkpt>
      <trkpt lat="44.40422" lon="4.17718">
        <ele>245.38</ele>
        <time>2021-08-11T08:29:08Z</time>
      </trkpt>
      <trkpt lat="44.40427" lon="4.17715">
        <ele>245.22</ele>
        <time>2021-08-11T08:29:14Z</time>
      </trkpt>
      <trkpt lat="44.40434" lon="4.17712">
        <ele>245.4</ele>
        <time>2021-08-11T08:29:20Z</time>
      </trkpt>
      <trkpt lat="44.40436" lon="4.17711">
        <ele>245.05</ele>
        <time>2021-08-11T08:29:22Z</time>
      </trkpt>
      <trkpt lat="44.40438" lon="4.1771">
        <ele>244.93</ele>
        <time>2021-08-11T08:29:24Z</time>
      </trkpt>
      <trkpt lat="44.40444" lon="4.17699">
        <ele>244.34</ele>
        <time>2021-08-11T08:29:35Z</time>
      </trkpt>
      <trkpt lat="44.40446" lon="4.17693">
        <ele>243.96</ele>
        <time>2021-08-11T08:29:46Z</time>
      </trkpt>
      <trkpt lat="44.40447" lon="4.17685">
        <ele>244.57</ele>
        <time>2021-08-11T08:29:58Z</time>
      </trkpt>
      <trkpt lat="44.40448" lon="4.17676">
        <ele>244.07</ele>
        <time>2021-08-11T08:30:06Z</time>
      </trkpt>
      <trkpt lat="44.40446" lon="4.17662">
        <ele>244.09</ele>
        <time>2021-08-11T08:30:17Z</time>
      </trkpt>
      <trkpt lat="44.40447" lon="4.17654">
        <ele>244.41</ele>
        <time>2021-08-11T08:30:25Z</time>
      </trkpt>
      <trkpt lat="44.40447" lon="4.17652">
        <ele>243.9</ele>
        <time>2021-08-11T08:30:29Z</time>
      </trkpt>
      <trkpt lat="44.40445" lon="4.17652">
        <ele>244.59</ele>
        <time>2021-08-11T08:30:41Z</time>
      </trkpt>
      <trkpt lat="44.40441" lon="4.1765">
        <ele>245.35</ele>
        <time>2021-08-11T08:30:48Z</time>
      </trkpt>
      <trkpt lat="44.4044" lon="4.17649">
        <ele>245.41</ele>
        <time>2021-08-11T08:30:50Z</time>
      </trkpt>
      <trkpt lat="44.40439" lon="4.17648">
        <ele>245.81</ele>
        <time>2021-08-11T08:31:01Z</time>
      </trkpt>
      <trkpt lat="44.40441" lon="4.1765">
        <ele>245.14</ele>
        <time>2021-08-11T08:31:15Z</time>
      </trkpt>
      <trkpt lat="44.40441" lon="4.1765">
        <ele>244.89</ele>
        <time>2021-08-11T08:31:28Z</time>
      </trkpt>
      <trkpt lat="44.40446" lon="4.17652">
        <ele>244.33</ele>
        <time>2021-08-11T08:31:40Z</time>
      </trkpt>
      <trkpt lat="44.40448" lon="4.17652">
        <ele>244.15</ele>
        <time>2021-08-11T08:31:51Z</time>
      </trkpt>
      <trkpt lat="44.40447" lon="4.17651">
        <ele>244.02</ele>
        <time>2021-08-11T08:32:09Z</time>
      </trkpt>
      <trkpt lat="44.40446" lon="4.1765">
        <ele>244.37</ele>
        <time>2021-08-11T08:32:24Z</time>
      </trkpt>
      <trkpt lat="44.40446" lon="4.1765">
        <ele>244.26</ele>
        <time>2021-08-11T08:32:38Z</time>
      </trkpt>
      <trkpt lat="44.40447" lon="4.17654">
        <ele>244.55</ele>
        <time>2021-08-11T08:32:53Z</time>
      </trkpt>
      <trkpt lat="44.40447" lon="4.17654">
        <ele>245.01</ele>
        <time>2021-08-11T08:33:07Z</time>
      </trkpt>
      <trkpt lat="44.40447" lon="4.17655">
        <ele>244.96</ele>
        <time>2021-08-11T08:33:26Z</time>
      </trkpt>
      <trkpt lat="44.40448" lon="4.17656">
        <ele>244.17</ele>
        <time>2021-08-11T08:33:49Z</time>
      </trkpt>
      <trkpt lat="44.40448" lon="4.17657">
        <ele>244.23</ele>
        <time>2021-08-11T08:34:19Z</time>
      </trkpt>
      <trkpt lat="44.40448" lon="4.17657">
        <ele>244.28</ele>
        <time>2021-08-11T08:34:43Z</time>
      </trkpt>
      <trkpt lat="44.4045" lon="4.17666">
        <ele>244.47</ele>
        <time>2021-08-11T08:34:57Z</time>
      </trkpt>
      <trkpt lat="44.40451" lon="4.17673">
        <ele>244.09</ele>
        <time>2021-08-11T08:35:07Z</time>
      </trkpt>
      <trkpt lat="44.40449" lon="4.17686">
        <ele>243.53</ele>
        <time>2021-08-11T08:35:20Z</time>
      </trkpt>
      <trkpt lat="44.40446" lon="4.17702">
        <ele>243.21</ele>
        <time>2021-08-11T08:35:33Z</time>
      </trkpt>
      <trkpt lat="44.40446" lon="4.17706">
        <ele>243.91</ele>
        <time>2021-08-11T08:35:41Z</time>
      </trkpt>
      <trkpt lat="44.40437" lon="4.17713">
        <ele>244.74</ele>
        <time>2021-08-11T08:35:53Z</time>
      </trkpt>
      <trkpt lat="44.40429" lon="4.17717">
        <ele>244.97</ele>
        <time>2021-08-11T08:36:01Z</time>
      </trkpt>
      <trkpt lat="44.40416" lon="4.17715">
        <ele>245.03</ele>
        <time>2021-08-11T08:36:15Z</time>
      </trkpt>
      <trkpt lat="44.40404" lon="4.17711">
        <ele>244.12</ele>
        <time>2021-08-11T08:36:27Z</time>
      </trkpt>
      <trkpt lat="44.40393" lon="4.17706">
        <ele>243.06</ele>
        <time>2021-08-11T08:36:38Z</time>
      </trkpt>
      <trkpt lat="44.40386" lon="4.17703">
        <ele>242.49</ele>
        <time>2021-08-11T08:36:44Z</time>
      </trkpt>
      <trkpt lat="44.40382" lon="4.17713">
        <ele>242.35</ele>
        <time>2021-08-11T08:36:55Z</time>
      </trkpt>
      <trkpt lat="44.40382" lon="4.17724">
        <ele>241.07</ele>
        <time>2021-08-11T08:37:08Z</time>
      </trkpt>
      <trkpt lat="44.40377" lon="4.17734">
        <ele>239.98</ele>
        <time>2021-08-11T08:37:20Z</time>
      </trkpt>
      <trkpt lat="44.40375" lon="4.17745">
        <ele>238.55</ele>
        <time>2021-08-11T08:37:33Z</time>
      </trkpt>
      <trkpt lat="44.40372" lon="4.1776">
        <ele>236.01</ele>
        <time>2021-08-11T08:37:46Z</time>
      </trkpt>
      <trkpt lat="44.40373" lon="4.17781">
        <ele>236.93</ele>
        <time>2021-08-11T08:38:00Z</time>
      </trkpt>
      <trkpt lat="44.40372" lon="4.1779">
        <ele>236.07</ele>
        <time>2021-08-11T08:38:08Z</time>
      </trkpt>
      <trkpt lat="44.40367" lon="4.17797">
        <ele>236.54</ele>
        <time>2021-08-11T08:38:17Z</time>
      </trkpt>
      <trkpt lat="44.40369" lon="4.17807">
        <ele>237.58</ele>
        <time>2021-08-11T08:38:29Z</time>
      </trkpt>
      <trkpt lat="44.4037" lon="4.17817">
        <ele>236.53</ele>
        <time>2021-08-11T08:38:41Z</time>
      </trkpt>
      <trkpt lat="44.40363" lon="4.17834">
        <ele>237.09</ele>
        <time>2021-08-11T08:38:55Z</time>
      </trkpt>
      <trkpt lat="44.40363" lon="4.17839">
        <ele>237.74</ele>
        <time>2021-08-11T08:38:58Z</time>
      </trkpt>
      <trkpt lat="44.40364" lon="4.17843">
        <ele>236.94</ele>
        <time>2021-08-11T08:39:01Z</time>
      </trkpt>
      <trkpt lat="44.40366" lon="4.17857">
        <ele>236.74</ele>
        <time>2021-08-11T08:39:12Z</time>
      </trkpt>
      <trkpt lat="44.40364" lon="4.17876">
        <ele>236.25</ele>
        <time>2021-08-11T08:39:27Z</time>
      </trkpt>
      <trkpt lat="44.40368" lon="4.17897">
        <ele>236.87</ele>
        <time>2021-08-11T08:39:41Z</time>
      </trkpt>
      <trkpt lat="44.40375" lon="4.17907">
        <ele>237.47</ele>
        <time>2021-08-11T08:39:51Z</time>
      </trkpt>
      <trkpt lat="44.40382" lon="4.17917">
        <ele>238.04</ele>
        <time>2021-08-11T08:40:03Z</time>
      </trkpt>
      <trkpt lat="44.40387" lon="4.17918">
        <ele>237.75</ele>
        <time>2021-08-11T08:40:07Z</time>
      </trkpt>
      <trkpt lat="44.40391" lon="4.17919">
        <ele>238.42</ele>
        <time>2021-08-11T08:40:11Z</time>
      </trkpt>
      <trkpt lat="44.40394" lon="4.17921">
        <ele>238.35</ele>
        <time>2021-08-11T08:40:14Z</time>
      </trkpt>
      <trkpt lat="44.40399" lon="4.17929">
        <ele>238.34</ele>
        <time>2021-08-11T08:40:21Z</time>
      </trkpt>
      <trkpt lat="44.404" lon="4.17937">
        <ele>238.43</ele>
        <time>2021-08-11T08:40:27Z</time>
      </trkpt>
      <trkpt lat="44.404" lon="4.17948">
        <ele>238.34</ele>
        <time>2021-08-11T08:40:35Z</time>
      </trkpt>
      <trkpt lat="44.404" lon="4.17956">
        <ele>238.58</ele>
        <time>2021-08-11T08:40:40Z</time>
      </trkpt>
      <trkpt lat="44.40402" lon="4.17981">
        <ele>237.57</ele>
        <time>2021-08-11T08:40:56Z</time>
      </trkpt>
      <trkpt lat="44.40402" lon="4.18001">
        <ele>238.66</ele>
        <time>2021-08-11T08:41:10Z</time>
      </trkpt>
      <trkpt lat="44.40403" lon="4.18015">
        <ele>240.34</ele>
        <time>2021-08-11T08:41:23Z</time>
      </trkpt>
      <trkpt lat="44.40403" lon="4.18028">
        <ele>241.93</ele>
        <time>2021-08-11T08:41:36Z</time>
      </trkpt>
      <trkpt lat="44.40404" lon="4.18038">
        <ele>244.81</ele>
        <time>2021-08-11T08:41:50Z</time>
      </trkpt>
      <trkpt lat="44.40403" lon="4.18048">
        <ele>246.59</ele>
        <time>2021-08-11T08:42:04Z</time>
      </trkpt>
      <trkpt lat="44.40395" lon="4.18058">
        <ele>248.36</ele>
        <time>2021-08-11T08:42:20Z</time>
      </trkpt>
      <trkpt lat="44.4039" lon="4.18057">
        <ele>247.99</ele>
        <time>2021-08-11T08:42:32Z</time>
      </trkpt>
      <trkpt lat="44.4039" lon="4.18057">
        <ele>247.55</ele>
        <time>2021-08-11T08:42:45Z</time>
      </trkpt>
      <trkpt lat="44.40389" lon="4.18059">
        <ele>247.58</ele>
        <time>2021-08-11T08:43:03Z</time>
      </trkpt>
      <trkpt lat="44.40387" lon="4.18057">
        <ele>247.67</ele>
        <time>2021-08-11T08:43:21Z</time>
      </trkpt>
      <trkpt lat="44.40388" lon="4.1806">
        <ele>247.7</ele>
        <time>2021-08-11T08:43:39Z</time>
      </trkpt>
      <trkpt lat="44.4039" lon="4.18062">
        <ele>247.66</ele>
        <time>2021-08-11T08:43:56Z</time>
      </trkpt>
      <trkpt lat="44.40392" lon="4.18062">
        <ele>247.55</ele>
        <time>2021-08-11T08:44:22Z</time>
      </trkpt>
      <trkpt lat="44.4039" lon="4.1806">
        <ele>247.96</ele>
        <time>2021-08-11T08:44:39Z</time>
      </trkpt>
      <trkpt lat="44.40389" lon="4.1806">
        <ele>247.64</ele>
        <time>2021-08-11T08:44:52Z</time>
      </trkpt>
      <trkpt lat="44.40388" lon="4.18058">
        <ele>247.33</ele>
        <time>2021-08-11T08:45:16Z</time>
      </trkpt>
      <trkpt lat="44.40387" lon="4.18056">
        <ele>247.78</ele>
        <time>2021-08-11T08:45:34Z</time>
      </trkpt>
      <trkpt lat="44.40388" lon="4.18058">
        <ele>247.89</ele>
        <time>2021-08-11T08:45:57Z</time>
      </trkpt>
      <trkpt lat="44.40388" lon="4.18056">
        <ele>247.87</ele>
        <time>2021-08-11T08:46:15Z</time>
      </trkpt>
      <trkpt lat="44.40387" lon="4.18056">
        <ele>247.43</ele>
        <time>2021-08-11T08:46:35Z</time>
      </trkpt>
      <trkpt lat="44.40387" lon="4.18055">
        <ele>247.44</ele>
        <time>2021-08-11T08:46:59Z</time>
      </trkpt>
      <trkpt lat="44.40387" lon="4.18055">
        <ele>247.96</ele>
        <time>2021-08-11T08:47:18Z</time>
      </trkpt>
      <trkpt lat="44.40386" lon="4.18055">
        <ele>247.48</ele>
        <time>2021-08-11T08:47:37Z</time>
      </trkpt>
      <trkpt lat="44.4039" lon="4.18062">
        <ele>247.27</ele>
        <time>2021-08-11T08:47:50Z</time>
      </trkpt>
      <trkpt lat="44.40393" lon="4.18071">
        <ele>248.97</ele>
        <time>2021-08-11T08:48:04Z</time>
      </trkpt>
      <trkpt lat="44.4039" lon="4.18079">
        <ele>250.55</ele>
        <time>2021-08-11T08:48:18Z</time>
      </trkpt>
      <trkpt lat="44.40386" lon="4.18092">
        <ele>252.6</ele>
        <time>2021-08-11T08:48:31Z</time>
      </trkpt>
      <trkpt lat="44.4038" lon="4.18103">
        <ele>252.6</ele>
        <time>2021-08-11T08:48:44Z</time>
      </trkpt>
      <trkpt lat="44.40373" lon="4.18121">
        <ele>253.33</ele>
        <time>2021-08-11T08:48:58Z</time>
      </trkpt>
      <trkpt lat="44.4037" lon="4.18136">
        <ele>253.01</ele>
        <time>2021-08-11T08:49:12Z</time>
      </trkpt>
      <trkpt lat="44.40369" lon="4.18148">
        <ele>251</ele>
        <time>2021-08-11T08:49:25Z</time>
      </trkpt>
      <trkpt lat="44.40366" lon="4.1816">
        <ele>249.76</ele>
        <time>2021-08-11T08:49:42Z</time>
      </trkpt>
      <trkpt lat="44.40364" lon="4.18176">
        <ele>247.8</ele>
        <time>2021-08-11T08:49:57Z</time>
      </trkpt>
      <trkpt lat="44.40361" lon="4.18192">
        <ele>246.18</ele>
        <time>2021-08-11T08:50:10Z</time>
      </trkpt>
      <trkpt lat="44.40359" lon="4.18201">
        <ele>243.83</ele>
        <time>2021-08-11T08:50:22Z</time>
      </trkpt>
      <trkpt lat="44.40358" lon="4.18216">
        <ele>241.45</ele>
        <time>2021-08-11T08:50:39Z</time>
      </trkpt>
      <trkpt lat="44.40355" lon="4.18226">
        <ele>240.38</ele>
        <time>2021-08-11T08:50:48Z</time>
      </trkpt>
      <trkpt lat="44.40353" lon="4.18241">
        <ele>240.46</ele>
        <time>2021-08-11T08:50:55Z</time>
      </trkpt>
      <trkpt lat="44.40353" lon="4.18245">
        <ele>240.2</ele>
        <time>2021-08-11T08:50:57Z</time>
      </trkpt>
      <trkpt lat="44.40358" lon="4.18262">
        <ele>239.01</ele>
        <time>2021-08-11T08:51:10Z</time>
      </trkpt>
      <trkpt lat="44.40358" lon="4.18268">
        <ele>239.42</ele>
        <time>2021-08-11T08:51:23Z</time>
      </trkpt>
      <trkpt lat="44.40359" lon="4.18281">
        <ele>239.16</ele>
        <time>2021-08-11T08:51:37Z</time>
      </trkpt>
      <trkpt lat="44.40359" lon="4.18296">
        <ele>238.27</ele>
        <time>2021-08-11T08:51:51Z</time>
      </trkpt>
      <trkpt lat="44.40355" lon="4.18304">
        <ele>238.47</ele>
        <time>2021-08-11T08:52:05Z</time>
      </trkpt>
      <trkpt lat="44.40356" lon="4.18311">
        <ele>239.11</ele>
        <time>2021-08-11T08:52:25Z</time>
      </trkpt>
      <trkpt lat="44.40356" lon="4.18316">
        <ele>239.42</ele>
        <time>2021-08-11T08:52:41Z</time>
      </trkpt>
      <trkpt lat="44.40357" lon="4.1832">
        <ele>239.66</ele>
        <time>2021-08-11T08:52:58Z</time>
      </trkpt>
      <trkpt lat="44.40358" lon="4.18319">
        <ele>239.61</ele>
        <time>2021-08-11T08:53:21Z</time>
      </trkpt>
      <trkpt lat="44.40367" lon="4.18321">
        <ele>240.06</ele>
        <time>2021-08-11T08:53:34Z</time>
      </trkpt>
      <trkpt lat="44.4038" lon="4.18318">
        <ele>240.12</ele>
        <time>2021-08-11T08:53:48Z</time>
      </trkpt>
      <trkpt lat="44.40387" lon="4.18324">
        <ele>240.74</ele>
        <time>2021-08-11T08:53:59Z</time>
      </trkpt>
      <trkpt lat="44.40391" lon="4.18338">
        <ele>242.46</ele>
        <time>2021-08-11T08:54:12Z</time>
      </trkpt>
      <trkpt lat="44.40396" lon="4.18355">
        <ele>242.08</ele>
        <time>2021-08-11T08:54:29Z</time>
      </trkpt>
      <trkpt lat="44.404" lon="4.18372">
        <ele>241.43</ele>
        <time>2021-08-11T08:54:44Z</time>
      </trkpt>
      <trkpt lat="44.40402" lon="4.18383">
        <ele>240.84</ele>
        <time>2021-08-11T08:55:01Z</time>
      </trkpt>
      <trkpt lat="44.40401" lon="4.18392">
        <ele>239.01</ele>
        <time>2021-08-11T08:55:13Z</time>
      </trkpt>
      <trkpt lat="44.40401" lon="4.18409">
        <ele>238.28</ele>
        <time>2021-08-11T08:55:30Z</time>
      </trkpt>
      <trkpt lat="44.40396" lon="4.18428">
        <ele>238.13</ele>
        <time>2021-08-11T08:55:43Z</time>
      </trkpt>
      <trkpt lat="44.4039" lon="4.18441">
        <ele>239.4</ele>
        <time>2021-08-11T08:55:57Z</time>
      </trkpt>
      <trkpt lat="44.40391" lon="4.18454">
        <ele>237.69</ele>
        <time>2021-08-11T08:56:12Z</time>
      </trkpt>
      <trkpt lat="44.4039" lon="4.18462">
        <ele>237.42</ele>
        <time>2021-08-11T08:56:20Z</time>
      </trkpt>
      <trkpt lat="44.40393" lon="4.18474">
        <ele>236.17</ele>
        <time>2021-08-11T08:56:37Z</time>
      </trkpt>
      <trkpt lat="44.40392" lon="4.18491">
        <ele>235.16</ele>
        <time>2021-08-11T08:56:54Z</time>
      </trkpt>
      <trkpt lat="44.40394" lon="4.18502">
        <ele>235.08</ele>
        <time>2021-08-11T08:57:06Z</time>
      </trkpt>
      <trkpt lat="44.40394" lon="4.18513">
        <ele>235.16</ele>
        <time>2021-08-11T08:57:28Z</time>
      </trkpt>
      <trkpt lat="44.40392" lon="4.18514">
        <ele>234.77</ele>
        <time>2021-08-11T08:57:50Z</time>
      </trkpt>
      <trkpt lat="44.40394" lon="4.18522">
        <ele>234.45</ele>
        <time>2021-08-11T08:58:05Z</time>
      </trkpt>
      <trkpt lat="44.40396" lon="4.18534">
        <ele>235.23</ele>
        <time>2021-08-11T08:58:20Z</time>
      </trkpt>
      <trkpt lat="44.40396" lon="4.18544">
        <ele>236.69</ele>
        <time>2021-08-11T08:58:35Z</time>
      </trkpt>
      <trkpt lat="44.40397" lon="4.18557">
        <ele>237.35</ele>
        <time>2021-08-11T08:58:46Z</time>
      </trkpt>
      <trkpt lat="44.40405" lon="4.18568">
        <ele>235.48</ele>
        <time>2021-08-11T08:58:59Z</time>
      </trkpt>
      <trkpt lat="44.40408" lon="4.18581">
        <ele>236.08</ele>
        <time>2021-08-11T08:59:14Z</time>
      </trkpt>
      <trkpt lat="44.40406" lon="4.18594">
        <ele>236.26</ele>
        <time>2021-08-11T08:59:27Z</time>
      </trkpt>
      <trkpt lat="44.40405" lon="4.18611">
        <ele>235.31</ele>
        <time>2021-08-11T08:59:41Z</time>
      </trkpt>
      <trkpt lat="44.40404" lon="4.18621">
        <ele>234.69</ele>
        <time>2021-08-11T08:59:51Z</time>
      </trkpt>
      <trkpt lat="44.40399" lon="4.18631">
        <ele>233.46</ele>
        <time>2021-08-11T09:00:05Z</time>
      </trkpt>
      <trkpt lat="44.40397" lon="4.1864">
        <ele>232.14</ele>
        <time>2021-08-11T09:00:18Z</time>
      </trkpt>
      <trkpt lat="44.40395" lon="4.18652">
        <ele>229.3</ele>
        <time>2021-08-11T09:00:34Z</time>
      </trkpt>
      <trkpt lat="44.40392" lon="4.18667">
        <ele>229.29</ele>
        <time>2021-08-11T09:00:43Z</time>
      </trkpt>
      <trkpt lat="44.40386" lon="4.1868">
        <ele>228.52</ele>
        <time>2021-08-11T09:00:55Z</time>
      </trkpt>
      <trkpt lat="44.40378" lon="4.18696">
        <ele>225.88</ele>
        <time>2021-08-11T09:01:09Z</time>
      </trkpt>
      <trkpt lat="44.40372" lon="4.18709">
        <ele>224.09</ele>
        <time>2021-08-11T09:01:23Z</time>
      </trkpt>
      <trkpt lat="44.4037" lon="4.18719">
        <ele>221.59</ele>
        <time>2021-08-11T09:01:39Z</time>
      </trkpt>
      <trkpt lat="44.40369" lon="4.1873">
        <ele>219.72</ele>
        <time>2021-08-11T09:01:53Z</time>
      </trkpt>
      <trkpt lat="44.40371" lon="4.18737">
        <ele>219.23</ele>
        <time>2021-08-11T09:02:08Z</time>
      </trkpt>
      <trkpt lat="44.40369" lon="4.18741">
        <ele>219.41</ele>
        <time>2021-08-11T09:02:26Z</time>
      </trkpt>
      <trkpt lat="44.40368" lon="4.18749">
        <ele>218.22</ele>
        <time>2021-08-11T09:02:42Z</time>
      </trkpt>
      <trkpt lat="44.40366" lon="4.18756">
        <ele>214.91</ele>
        <time>2021-08-11T09:02:55Z</time>
      </trkpt>
      <trkpt lat="44.40367" lon="4.18764">
        <ele>214.86</ele>
        <time>2021-08-11T09:03:11Z</time>
      </trkpt>
      <trkpt lat="44.4037" lon="4.1877">
        <ele>213.15</ele>
        <time>2021-08-11T09:03:27Z</time>
      </trkpt>
      <trkpt lat="44.40369" lon="4.18771">
        <ele>212.69</ele>
        <time>2021-08-11T09:03:45Z</time>
      </trkpt>
      <trkpt lat="44.40367" lon="4.18777">
        <ele>211.1</ele>
        <time>2021-08-11T09:04:03Z</time>
      </trkpt>
      <trkpt lat="44.40368" lon="4.18788">
        <ele>208</ele>
        <time>2021-08-11T09:04:21Z</time>
      </trkpt>
      <trkpt lat="44.40368" lon="4.18807">
        <ele>206.45</ele>
        <time>2021-08-11T09:04:35Z</time>
      </trkpt>
      <trkpt lat="44.40368" lon="4.1881">
        <ele>204.97</ele>
        <time>2021-08-11T09:04:39Z</time>
      </trkpt>
      <trkpt lat="44.40363" lon="4.18823">
        <ele>203.11</ele>
        <time>2021-08-11T09:04:53Z</time>
      </trkpt>
      <trkpt lat="44.40359" lon="4.1883">
        <ele>203.37</ele>
        <time>2021-08-11T09:05:07Z</time>
      </trkpt>
      <trkpt lat="44.40352" lon="4.18833">
        <ele>205.76</ele>
        <time>2021-08-11T09:05:21Z</time>
      </trkpt>
      <trkpt lat="44.40343" lon="4.18832">
        <ele>208.56</ele>
        <time>2021-08-11T09:05:37Z</time>
      </trkpt>
      <trkpt lat="44.40333" lon="4.18832">
        <ele>210.03</ele>
        <time>2021-08-11T09:05:52Z</time>
      </trkpt>
      <trkpt lat="44.40324" lon="4.18834">
        <ele>212.31</ele>
        <time>2021-08-11T09:06:06Z</time>
      </trkpt>
      <trkpt lat="44.40316" lon="4.18829">
        <ele>214.68</ele>
        <time>2021-08-11T09:06:23Z</time>
      </trkpt>
      <trkpt lat="44.40308" lon="4.18827">
        <ele>216.49</ele>
        <time>2021-08-11T09:06:37Z</time>
      </trkpt>
      <trkpt lat="44.40299" lon="4.18828">
        <ele>216.96</ele>
        <time>2021-08-11T09:06:48Z</time>
      </trkpt>
      <trkpt lat="44.40286" lon="4.1883">
        <ele>217.27</ele>
        <time>2021-08-11T09:07:00Z</time>
      </trkpt>
      <trkpt lat="44.40281" lon="4.18832">
        <ele>217.46</ele>
        <time>2021-08-11T09:07:17Z</time>
      </trkpt>
      <trkpt lat="44.40273" lon="4.18837">
        <ele>216.59</ele>
        <time>2021-08-11T09:07:33Z</time>
      </trkpt>
      <trkpt lat="44.40268" lon="4.18849">
        <ele>214.75</ele>
        <time>2021-08-11T09:07:50Z</time>
      </trkpt>
      <trkpt lat="44.40259" lon="4.18868">
        <ele>214.35</ele>
        <time>2021-08-11T09:08:07Z</time>
      </trkpt>
      <trkpt lat="44.40252" lon="4.18894">
        <ele>213.99</ele>
        <time>2021-08-11T09:08:23Z</time>
      </trkpt>
      <trkpt lat="44.40249" lon="4.18903">
        <ele>215.37</ele>
        <time>2021-08-11T09:08:29Z</time>
      </trkpt>
      <trkpt lat="44.40247" lon="4.1891">
        <ele>215.26</ele>
        <time>2021-08-11T09:08:33Z</time>
      </trkpt>
      <trkpt lat="44.40246" lon="4.18914">
        <ele>214.51</ele>
        <time>2021-08-11T09:08:51Z</time>
      </trkpt>
      <trkpt lat="44.40247" lon="4.18915">
        <ele>214.99</ele>
        <time>2021-08-11T09:09:08Z</time>
      </trkpt>
      <trkpt lat="44.40243" lon="4.18917">
        <ele>215.31</ele>
        <time>2021-08-11T09:09:29Z</time>
      </trkpt>
      <trkpt lat="44.40242" lon="4.18915">
        <ele>214.82</ele>
        <time>2021-08-11T09:09:49Z</time>
      </trkpt>
      <trkpt lat="44.40242" lon="4.18919">
        <ele>215.24</ele>
        <time>2021-08-11T09:10:05Z</time>
      </trkpt>
      <trkpt lat="44.4024" lon="4.18928">
        <ele>216.19</ele>
        <time>2021-08-11T09:10:17Z</time>
      </trkpt>
      <trkpt lat="44.40236" lon="4.18941">
        <ele>217.2</ele>
        <time>2021-08-11T09:10:34Z</time>
      </trkpt>
      <trkpt lat="44.40233" lon="4.18955">
        <ele>219.42</ele>
        <time>2021-08-11T09:10:49Z</time>
      </trkpt>
      <trkpt lat="44.40229" lon="4.18966">
        <ele>220.28</ele>
        <time>2021-08-11T09:11:01Z</time>
      </trkpt>
      <trkpt lat="44.40219" lon="4.18972">
        <ele>221</ele>
        <time>2021-08-11T09:11:16Z</time>
      </trkpt>
      <trkpt lat="44.40208" lon="4.18978">
        <ele>222.31</ele>
        <time>2021-08-11T09:11:29Z</time>
      </trkpt>
      <trkpt lat="44.40202" lon="4.18981">
        <ele>223.41</ele>
        <time>2021-08-11T09:11:42Z</time>
      </trkpt>
      <trkpt lat="44.402" lon="4.18986">
        <ele>223.95</ele>
        <time>2021-08-11T09:11:55Z</time>
      </trkpt>
      <trkpt lat="44.40198" lon="4.18985">
        <ele>224.15</ele>
        <time>2021-08-11T09:12:07Z</time>
      </trkpt>
      <trkpt lat="44.40197" lon="4.18987">
        <ele>224.26</ele>
        <time>2021-08-11T09:12:10Z</time>
      </trkpt>
      <trkpt lat="44.40198" lon="4.18996">
        <ele>226.84</ele>
        <time>2021-08-11T09:12:24Z</time>
      </trkpt>
      <trkpt lat="44.40196" lon="4.19004">
        <ele>226.04</ele>
        <time>2021-08-11T09:12:36Z</time>
      </trkpt>
      <trkpt lat="44.40196" lon="4.19011">
        <ele>225.36</ele>
        <time>2021-08-11T09:12:50Z</time>
      </trkpt>
      <trkpt lat="44.40193" lon="4.19014">
        <ele>225.3</ele>
        <time>2021-08-11T09:13:15Z</time>
      </trkpt>
      <trkpt lat="44.40191" lon="4.19017">
        <ele>227.11</ele>
        <time>2021-08-11T09:13:29Z</time>
      </trkpt>
      <trkpt lat="44.40191" lon="4.19018">
        <ele>226.38</ele>
        <time>2021-08-11T09:13:53Z</time>
      </trkpt>
      <trkpt lat="44.40191" lon="4.1902">
        <ele>226.03</ele>
        <time>2021-08-11T09:14:18Z</time>
      </trkpt>
      <trkpt lat="44.40192" lon="4.19021">
        <ele>224.83</ele>
        <time>2021-08-11T09:14:34Z</time>
      </trkpt>
      <trkpt lat="44.40191" lon="4.19022">
        <ele>225.11</ele>
        <time>2021-08-11T09:14:53Z</time>
      </trkpt>
      <trkpt lat="44.40189" lon="4.19026">
        <ele>224.78</ele>
        <time>2021-08-11T09:15:12Z</time>
      </trkpt>
      <trkpt lat="44.40191" lon="4.19025">
        <ele>224.71</ele>
        <time>2021-08-11T09:15:35Z</time>
      </trkpt>
      <trkpt lat="44.40192" lon="4.19023">
        <ele>225.13</ele>
        <time>2021-08-11T09:15:53Z</time>
      </trkpt>
      <trkpt lat="44.40191" lon="4.19021">
        <ele>225.06</ele>
        <time>2021-08-11T09:16:12Z</time>
      </trkpt>
      <trkpt lat="44.4019" lon="4.19023">
        <ele>225.21</ele>
        <time>2021-08-11T09:16:33Z</time>
      </trkpt>
      <trkpt lat="44.40191" lon="4.19023">
        <ele>225.16</ele>
        <time>2021-08-11T09:16:47Z</time>
      </trkpt>
      <trkpt lat="44.40191" lon="4.19023">
        <ele>225.27</ele>
        <time>2021-08-11T09:17:06Z</time>
      </trkpt>
      <trkpt lat="44.4019" lon="4.19022">
        <ele>225.3</ele>
        <time>2021-08-11T09:17:21Z</time>
      </trkpt>
      <trkpt lat="44.4019" lon="4.19023">
        <ele>225.72</ele>
        <time>2021-08-11T09:17:38Z</time>
      </trkpt>
      <trkpt lat="44.4019" lon="4.1902">
        <ele>225.57</ele>
        <time>2021-08-11T09:18:01Z</time>
      </trkpt>
      <trkpt lat="44.4019" lon="4.19022">
        <ele>225.57</ele>
        <time>2021-08-11T09:18:18Z</time>
      </trkpt>
      <trkpt lat="44.4019" lon="4.19021">
        <ele>225.63</ele>
        <time>2021-08-11T09:18:31Z</time>
      </trkpt>
      <trkpt lat="44.40188" lon="4.19023">
        <ele>225.08</ele>
        <time>2021-08-11T09:18:48Z</time>
      </trkpt>
      <trkpt lat="44.40186" lon="4.1902">
        <ele>226.46</ele>
        <time>2021-08-11T09:19:04Z</time>
      </trkpt>
      <trkpt lat="44.40182" lon="4.19019">
        <ele>228.01</ele>
        <time>2021-08-11T09:19:21Z</time>
      </trkpt>
      <trkpt lat="44.40177" lon="4.19023">
        <ele>229.55</ele>
        <time>2021-08-11T09:19:36Z</time>
      </trkpt>
      <trkpt lat="44.40172" lon="4.19029">
        <ele>231.02</ele>
        <time>2021-08-11T09:19:50Z</time>
      </trkpt>
      <trkpt lat="44.40166" lon="4.19035">
        <ele>231.46</ele>
        <time>2021-08-11T09:20:06Z</time>
      </trkpt>
      <trkpt lat="44.40168" lon="4.19038">
        <ele>231.15</ele>
        <time>2021-08-11T09:20:20Z</time>
      </trkpt>
      <trkpt lat="44.40168" lon="4.19042">
        <ele>231.3</ele>
        <time>2021-08-11T09:20:43Z</time>
      </trkpt>
      <trkpt lat="44.40166" lon="4.19043">
        <ele>230.63</ele>
        <time>2021-08-11T09:20:58Z</time>
      </trkpt>
      <trkpt lat="44.40165" lon="4.19046">
        <ele>229.94</ele>
        <time>2021-08-11T09:21:11Z</time>
      </trkpt>
      <trkpt lat="44.40165" lon="4.19045">
        <ele>229.67</ele>
        <time>2021-08-11T09:21:33Z</time>
      </trkpt>
      <trkpt lat="44.40157" lon="4.19045">
        <ele>230.14</ele>
        <time>2021-08-11T09:21:47Z</time>
      </trkpt>
      <trkpt lat="44.40153" lon="4.19052">
        <ele>228.24</ele>
        <time>2021-08-11T09:21:59Z</time>
      </trkpt>
      <trkpt lat="44.40154" lon="4.19053">
        <ele>228.78</ele>
        <time>2021-08-11T09:22:14Z</time>
      </trkpt>
      <trkpt lat="44.40152" lon="4.19052">
        <ele>228.1</ele>
        <time>2021-08-11T09:22:34Z</time>
      </trkpt>
      <trkpt lat="44.4015" lon="4.19052">
        <ele>228.21</ele>
        <time>2021-08-11T09:22:49Z</time>
      </trkpt>
      <trkpt lat="44.40151" lon="4.19051">
        <ele>228.36</ele>
        <time>2021-08-11T09:23:06Z</time>
      </trkpt>
      <trkpt lat="44.40149" lon="4.19054">
        <ele>227.76</ele>
        <time>2021-08-11T09:23:21Z</time>
      </trkpt>
      <trkpt lat="44.40152" lon="4.19054">
        <ele>228.13</ele>
        <time>2021-08-11T09:23:38Z</time>
      </trkpt>
      <trkpt lat="44.40151" lon="4.19055">
        <ele>228.44</ele>
        <time>2021-08-11T09:24:06Z</time>
      </trkpt>
      <trkpt lat="44.40142" lon="4.19058">
        <ele>227.26</ele>
        <time>2021-08-11T09:24:20Z</time>
      </trkpt>
      <trkpt lat="44.40132" lon="4.19063">
        <ele>225.67</ele>
        <time>2021-08-11T09:24:37Z</time>
      </trkpt>
      <trkpt lat="44.40126" lon="4.1907">
        <ele>223.67</ele>
        <time>2021-08-11T09:24:53Z</time>
      </trkpt>
      <trkpt lat="44.40119" lon="4.19073">
        <ele>222.28</ele>
        <time>2021-08-11T09:25:08Z</time>
      </trkpt>
      <trkpt lat="44.40116" lon="4.19082">
        <ele>222.04</ele>
        <time>2021-08-11T09:25:22Z</time>
      </trkpt>
      <trkpt lat="44.40116" lon="4.19082">
        <ele>222.43</ele>
        <time>2021-08-11T09:25:42Z</time>
      </trkpt>
      <trkpt lat="44.40112" lon="4.19081">
        <ele>222.05</ele>
        <time>2021-08-11T09:26:05Z</time>
      </trkpt>
      <trkpt lat="44.40112" lon="4.19082">
        <ele>221.98</ele>
        <time>2021-08-11T09:26:25Z</time>
      </trkpt>
      <trkpt lat="44.40104" lon="4.1909">
        <ele>221.1</ele>
        <time>2021-08-11T09:26:40Z</time>
      </trkpt>
      <trkpt lat="44.401" lon="4.19096">
        <ele>220.17</ele>
        <time>2021-08-11T09:26:51Z</time>
      </trkpt>
      <trkpt lat="44.40099" lon="4.19095">
        <ele>220.14</ele>
        <time>2021-08-11T09:27:08Z</time>
      </trkpt>
      <trkpt lat="44.40096" lon="4.19098">
        <ele>220.36</ele>
        <time>2021-08-11T09:27:22Z</time>
      </trkpt>
      <trkpt lat="44.40096" lon="4.19101">
        <ele>219.08</ele>
        <time>2021-08-11T09:27:36Z</time>
      </trkpt>
      <trkpt lat="44.40095" lon="4.19103">
        <ele>219.34</ele>
        <time>2021-08-11T09:27:52Z</time>
      </trkpt>
      <trkpt lat="44.40094" lon="4.19104">
        <ele>218.51</ele>
        <time>2021-08-11T09:28:05Z</time>
      </trkpt>
      <trkpt lat="44.40089" lon="4.19104">
        <ele>218.29</ele>
        <time>2021-08-11T09:28:25Z</time>
      </trkpt>
      <trkpt lat="44.4008" lon="4.191">
        <ele>217</ele>
        <time>2021-08-11T09:28:38Z</time>
      </trkpt>
      <trkpt lat="44.40072" lon="4.19102">
        <ele>216.03</ele>
        <time>2021-08-11T09:28:52Z</time>
      </trkpt>
      <trkpt lat="44.40065" lon="4.19104">
        <ele>215.07</ele>
        <time>2021-08-11T09:29:04Z</time>
      </trkpt>
      <trkpt lat="44.40052" lon="4.19106">
        <ele>214</ele>
        <time>2021-08-11T09:29:19Z</time>
      </trkpt>
      <trkpt lat="44.40046" lon="4.19104">
        <ele>213.87</ele>
        <time>2021-08-11T09:29:33Z</time>
      </trkpt>
      <trkpt lat="44.40035" lon="4.19112">
        <ele>212.71</ele>
        <time>2021-08-11T09:29:48Z</time>
      </trkpt>
      <trkpt lat="44.40027" lon="4.19117">
        <ele>212.17</ele>
        <time>2021-08-11T09:30:01Z</time>
      </trkpt>
      <trkpt lat="44.40015" lon="4.19114">
        <ele>212.01</ele>
        <time>2021-08-11T09:30:15Z</time>
      </trkpt>
      <trkpt lat="44.40008" lon="4.19111">
        <ele>212.1</ele>
        <time>2021-08-11T09:30:32Z</time>
      </trkpt>
      <trkpt lat="44.39999" lon="4.1911">
        <ele>210.93</ele>
        <time>2021-08-11T09:30:44Z</time>
      </trkpt>
      <trkpt lat="44.3999" lon="4.1911">
        <ele>211.06</ele>
        <time>2021-08-11T09:30:59Z</time>
      </trkpt>
      <trkpt lat="44.39984" lon="4.19113">
        <ele>210.8</ele>
        <time>2021-08-11T09:31:14Z</time>
      </trkpt>
      <trkpt lat="44.39979" lon="4.19113">
        <ele>210.7</ele>
        <time>2021-08-11T09:31:26Z</time>
      </trkpt>
      <trkpt lat="44.3997" lon="4.19107">
        <ele>211.03</ele>
        <time>2021-08-11T09:31:40Z</time>
      </trkpt>
      <trkpt lat="44.39961" lon="4.19109">
        <ele>210.67</ele>
        <time>2021-08-11T09:31:56Z</time>
      </trkpt>
      <trkpt lat="44.39952" lon="4.19108">
        <ele>210.03</ele>
        <time>2021-08-11T09:32:10Z</time>
      </trkpt>
      <trkpt lat="44.39948" lon="4.19109">
        <ele>210.08</ele>
        <time>2021-08-11T09:32:14Z</time>
      </trkpt>
      <trkpt lat="44.39935" lon="4.19111">
        <ele>209.24</ele>
        <time>2021-08-11T09:32:28Z</time>
      </trkpt>
      <trkpt lat="44.39931" lon="4.1911">
        <ele>209.17</ele>
        <time>2021-08-11T09:32:43Z</time>
      </trkpt>
      <trkpt lat="44.3993" lon="4.19113">
        <ele>208.43</ele>
        <time>2021-08-11T09:33:10Z</time>
      </trkpt>
      <trkpt lat="44.39926" lon="4.19114">
        <ele>207.64</ele>
        <time>2021-08-11T09:33:29Z</time>
      </trkpt>
      <trkpt lat="44.3992" lon="4.19117">
        <ele>205.32</ele>
        <time>2021-08-11T09:33:47Z</time>
      </trkpt>
      <trkpt lat="44.3992" lon="4.19118">
        <ele>205.26</ele>
        <time>2021-08-11T09:33:55Z</time>
      </trkpt>
      <trkpt lat="44.39917" lon="4.19121">
        <ele>204.35</ele>
        <time>2021-08-11T09:34:12Z</time>
      </trkpt>
      <trkpt lat="44.39918" lon="4.19119">
        <ele>204.22</ele>
        <time>2021-08-11T09:34:34Z</time>
      </trkpt>
      <trkpt lat="44.39863" lon="4.19115">
        <ele>204.19</ele>
        <time>2021-08-11T09:35:30Z</time>
      </trkpt>
      <trkpt lat="44.39866" lon="4.19122">
        <ele>203.99</ele>
        <time>2021-08-11T09:35:39Z</time>
      </trkpt>
      <trkpt lat="44.39868" lon="4.19122">
        <ele>203.96</ele>
        <time>2021-08-11T09:35:41Z</time>
      </trkpt>
      <trkpt lat="44.39872" lon="4.19122">
        <ele>203.91</ele>
        <time>2021-08-11T09:35:44Z</time>
      </trkpt>
      <trkpt lat="44.39879" lon="4.19123">
        <ele>203.43</ele>
        <time>2021-08-11T09:35:52Z</time>
      </trkpt>
      <trkpt lat="44.39895" lon="4.19129">
        <ele>203.08</ele>
        <time>2021-08-11T09:36:13Z</time>
      </trkpt>
      <trkpt lat="44.39898" lon="4.19136">
        <ele>202.85</ele>
        <time>2021-08-11T09:36:28Z</time>
      </trkpt>
      <trkpt lat="44.39901" lon="4.19149">
        <ele>200.28</ele>
        <time>2021-08-11T09:36:43Z</time>
      </trkpt>
      <trkpt lat="44.39897" lon="4.1915">
        <ele>200.31</ele>
        <time>2021-08-11T09:36:58Z</time>
      </trkpt>
      <trkpt lat="44.39897" lon="4.19148">
        <ele>199.78</ele>
        <time>2021-08-11T09:37:19Z</time>
      </trkpt>
      <trkpt lat="44.39895" lon="4.19149">
        <ele>199.43</ele>
        <time>2021-08-11T09:37:35Z</time>
      </trkpt>
      <trkpt lat="44.39887" lon="4.19152">
        <ele>197.47</ele>
        <time>2021-08-11T09:37:49Z</time>
      </trkpt>
      <trkpt lat="44.39877" lon="4.19159">
        <ele>196.77</ele>
        <time>2021-08-11T09:38:03Z</time>
      </trkpt>
      <trkpt lat="44.39874" lon="4.19162">
        <ele>195.51</ele>
        <time>2021-08-11T09:38:06Z</time>
      </trkpt>
      <trkpt lat="44.39872" lon="4.19163">
        <ele>195.34</ele>
        <time>2021-08-11T09:38:08Z</time>
      </trkpt>
      <trkpt lat="44.39862" lon="4.1917">
        <ele>194.38</ele>
        <time>2021-08-11T09:38:19Z</time>
      </trkpt>
      <trkpt lat="44.39853" lon="4.19168">
        <ele>193.83</ele>
        <time>2021-08-11T09:38:28Z</time>
      </trkpt>
      <trkpt lat="44.39852" lon="4.19169">
        <ele>194.03</ele>
        <time>2021-08-11T09:38:37Z</time>
      </trkpt>
      <trkpt lat="44.39845" lon="4.19175">
        <ele>193.15</ele>
        <time>2021-08-11T09:38:53Z</time>
      </trkpt>
      <trkpt lat="44.39842" lon="4.19176">
        <ele>192.69</ele>
        <time>2021-08-11T09:39:06Z</time>
      </trkpt>
      <trkpt lat="44.39834" lon="4.19179">
        <ele>192.42</ele>
        <time>2021-08-11T09:39:19Z</time>
      </trkpt>
      <trkpt lat="44.3983" lon="4.19188">
        <ele>191.06</ele>
        <time>2021-08-11T09:39:27Z</time>
      </trkpt>
      <trkpt lat="44.39828" lon="4.19192">
        <ele>191.38</ele>
        <time>2021-08-11T09:39:38Z</time>
      </trkpt>
      <trkpt lat="44.39826" lon="4.19191">
        <ele>191.5</ele>
        <time>2021-08-11T09:39:55Z</time>
      </trkpt>
      <trkpt lat="44.39824" lon="4.1919">
        <ele>191.67</ele>
        <time>2021-08-11T09:40:09Z</time>
      </trkpt>
      <trkpt lat="44.39819" lon="4.19192">
        <ele>191.42</ele>
        <time>2021-08-11T09:40:22Z</time>
      </trkpt>
      <trkpt lat="44.39813" lon="4.19194">
        <ele>190.74</ele>
        <time>2021-08-11T09:40:36Z</time>
      </trkpt>
      <trkpt lat="44.398" lon="4.19197">
        <ele>190</ele>
        <time>2021-08-11T09:40:51Z</time>
      </trkpt>
      <trkpt lat="44.39788" lon="4.19197">
        <ele>189.52</ele>
        <time>2021-08-11T09:41:05Z</time>
      </trkpt>
      <trkpt lat="44.39778" lon="4.19195">
        <ele>189.18</ele>
        <time>2021-08-11T09:41:18Z</time>
      </trkpt>
      <trkpt lat="44.39774" lon="4.19194">
        <ele>188.95</ele>
        <time>2021-08-11T09:41:21Z</time>
      </trkpt>
      <trkpt lat="44.3976" lon="4.1919">
        <ele>189.26</ele>
        <time>2021-08-11T09:41:34Z</time>
      </trkpt>
      <trkpt lat="44.3975" lon="4.19185">
        <ele>188.75</ele>
        <time>2021-08-11T09:41:52Z</time>
      </trkpt>
      <trkpt lat="44.39737" lon="4.19179">
        <ele>188.51</ele>
        <time>2021-08-11T09:42:06Z</time>
      </trkpt>
      <trkpt lat="44.39726" lon="4.19167">
        <ele>188.11</ele>
        <time>2021-08-11T09:42:20Z</time>
      </trkpt>
      <trkpt lat="44.39717" lon="4.19159">
        <ele>188.85</ele>
        <time>2021-08-11T09:42:29Z</time>
      </trkpt>
      <trkpt lat="44.39705" lon="4.19144">
        <ele>189.08</ele>
        <time>2021-08-11T09:42:43Z</time>
      </trkpt>
      <trkpt lat="44.39695" lon="4.19134">
        <ele>189.58</ele>
        <time>2021-08-11T09:42:54Z</time>
      </trkpt>
      <trkpt lat="44.39686" lon="4.19127">
        <ele>190.32</ele>
        <time>2021-08-11T09:43:07Z</time>
      </trkpt>
      <trkpt lat="44.39679" lon="4.19121">
        <ele>190.56</ele>
        <time>2021-08-11T09:43:19Z</time>
      </trkpt>
      <trkpt lat="44.39674" lon="4.19116">
        <ele>191.26</ele>
        <time>2021-08-11T09:43:24Z</time>
      </trkpt>
      <trkpt lat="44.3967" lon="4.19109">
        <ele>191.42</ele>
        <time>2021-08-11T09:43:29Z</time>
      </trkpt>
      <trkpt lat="44.39665" lon="4.19101">
        <ele>191.46</ele>
        <time>2021-08-11T09:43:37Z</time>
      </trkpt>
      <trkpt lat="44.39657" lon="4.19099">
        <ele>192.37</ele>
        <time>2021-08-11T09:43:48Z</time>
      </trkpt>
      <trkpt lat="44.39651" lon="4.19099">
        <ele>193.13</ele>
        <time>2021-08-11T09:44:00Z</time>
      </trkpt>
      <trkpt lat="44.39646" lon="4.19097">
        <ele>193.73</ele>
        <time>2021-08-11T09:44:10Z</time>
      </trkpt>
      <trkpt lat="44.39641" lon="4.19102">
        <ele>193.89</ele>
        <time>2021-08-11T09:44:24Z</time>
      </trkpt>
      <trkpt lat="44.39636" lon="4.19107">
        <ele>194.3</ele>
        <time>2021-08-11T09:44:36Z</time>
      </trkpt>
      <trkpt lat="44.39631" lon="4.1911">
        <ele>193.79</ele>
        <time>2021-08-11T09:44:46Z</time>
      </trkpt>
      <trkpt lat="44.39628" lon="4.19112">
        <ele>194.26</ele>
        <time>2021-08-11T09:44:50Z</time>
      </trkpt>
      <trkpt lat="44.39615" lon="4.19117">
        <ele>195.06</ele>
        <time>2021-08-11T09:45:04Z</time>
      </trkpt>
      <trkpt lat="44.39608" lon="4.19119">
        <ele>195.95</ele>
        <time>2021-08-11T09:45:17Z</time>
      </trkpt>
      <trkpt lat="44.39597" lon="4.19119">
        <ele>195.98</ele>
        <time>2021-08-11T09:45:29Z</time>
      </trkpt>
      <trkpt lat="44.39586" lon="4.19116">
        <ele>197.75</ele>
        <time>2021-08-11T09:45:43Z</time>
      </trkpt>
      <trkpt lat="44.39586" lon="4.19113">
        <ele>198.09</ele>
        <time>2021-08-11T09:45:54Z</time>
      </trkpt>
      <trkpt lat="44.39586" lon="4.19112">
        <ele>197.94</ele>
        <time>2021-08-11T09:46:16Z</time>
      </trkpt>
      <trkpt lat="44.39586" lon="4.19109">
        <ele>197.78</ele>
        <time>2021-08-11T09:46:35Z</time>
      </trkpt>
      <trkpt lat="44.39591" lon="4.19103">
        <ele>198.37</ele>
        <time>2021-08-11T09:46:47Z</time>
      </trkpt>
      <trkpt lat="44.39591" lon="4.19093">
        <ele>199.48</ele>
        <time>2021-08-11T09:46:57Z</time>
      </trkpt>
      <trkpt lat="44.3959" lon="4.19077">
        <ele>200.57</ele>
        <time>2021-08-11T09:47:10Z</time>
      </trkpt>
      <trkpt lat="44.3959" lon="4.19067">
        <ele>201.47</ele>
        <time>2021-08-11T09:47:23Z</time>
      </trkpt>
      <trkpt lat="44.3959" lon="4.19054">
        <ele>201.57</ele>
        <time>2021-08-11T09:47:36Z</time>
      </trkpt>
      <trkpt lat="44.39588" lon="4.19045">
        <ele>201.72</ele>
        <time>2021-08-11T09:47:49Z</time>
      </trkpt>
      <trkpt lat="44.39586" lon="4.19028">
        <ele>202.65</ele>
        <time>2021-08-11T09:48:03Z</time>
      </trkpt>
      <trkpt lat="44.39582" lon="4.19018">
        <ele>202.83</ele>
        <time>2021-08-11T09:48:17Z</time>
      </trkpt>
      <trkpt lat="44.3958" lon="4.19006">
        <ele>202.6</ele>
        <time>2021-08-11T09:48:38Z</time>
      </trkpt>
      <trkpt lat="44.39574" lon="4.18985">
        <ele>203.55</ele>
        <time>2021-08-11T09:48:55Z</time>
      </trkpt>
      <trkpt lat="44.39565" lon="4.18964">
        <ele>203.45</ele>
        <time>2021-08-11T09:49:10Z</time>
      </trkpt>
      <trkpt lat="44.39561" lon="4.18946">
        <ele>204.09</ele>
        <time>2021-08-11T09:49:20Z</time>
      </trkpt>
      <trkpt lat="44.39556" lon="4.18934">
        <ele>204.28</ele>
        <time>2021-08-11T09:49:28Z</time>
      </trkpt>
      <trkpt lat="44.39548" lon="4.18915">
        <ele>205.01</ele>
        <time>2021-08-11T09:49:41Z</time>
      </trkpt>
      <trkpt lat="44.39546" lon="4.18895">
        <ele>205.51</ele>
        <time>2021-08-11T09:49:54Z</time>
      </trkpt>
      <trkpt lat="44.39546" lon="4.18875">
        <ele>206.75</ele>
        <time>2021-08-11T09:50:09Z</time>
      </trkpt>
      <trkpt lat="44.39545" lon="4.18855">
        <ele>207.05</ele>
        <time>2021-08-11T09:50:24Z</time>
      </trkpt>
      <trkpt lat="44.39546" lon="4.18829">
        <ele>208.63</ele>
        <time>2021-08-11T09:50:38Z</time>
      </trkpt>
      <trkpt lat="44.39548" lon="4.18804">
        <ele>207.87</ele>
        <time>2021-08-11T09:50:53Z</time>
      </trkpt>
      <trkpt lat="44.39553" lon="4.18792">
        <ele>207.44</ele>
        <time>2021-08-11T09:51:04Z</time>
      </trkpt>
      <trkpt lat="44.3956" lon="4.18774">
        <ele>205.87</ele>
        <time>2021-08-11T09:51:19Z</time>
      </trkpt>
      <trkpt lat="44.39562" lon="4.18758">
        <ele>204.02</ele>
        <time>2021-08-11T09:51:32Z</time>
      </trkpt>
      <trkpt lat="44.39567" lon="4.18739">
        <ele>202.26</ele>
        <time>2021-08-11T09:51:47Z</time>
      </trkpt>
      <trkpt lat="44.39576" lon="4.18724">
        <ele>200.81</ele>
        <time>2021-08-11T09:51:59Z</time>
      </trkpt>
      <trkpt lat="44.39576" lon="4.18702">
        <ele>200.61</ele>
        <time>2021-08-11T09:52:14Z</time>
      </trkpt>
      <trkpt lat="44.39574" lon="4.18698">
        <ele>200.27</ele>
        <time>2021-08-11T09:52:16Z</time>
      </trkpt>
      <trkpt lat="44.39577" lon="4.18669">
        <ele>200.13</ele>
        <time>2021-08-11T09:52:32Z</time>
      </trkpt>
      <trkpt lat="44.39581" lon="4.18647">
        <ele>199.44</ele>
        <time>2021-08-11T09:52:47Z</time>
      </trkpt>
      <trkpt lat="44.39583" lon="4.18635">
        <ele>198.93</ele>
        <time>2021-08-11T09:52:55Z</time>
      </trkpt>
      <trkpt lat="44.39587" lon="4.18627">
        <ele>198.98</ele>
        <time>2021-08-11T09:53:16Z</time>
      </trkpt>
      <trkpt lat="44.39586" lon="4.18618">
        <ele>198.03</ele>
        <time>2021-08-11T09:53:35Z</time>
      </trkpt>
      <trkpt lat="44.39589" lon="4.18606">
        <ele>197.85</ele>
        <time>2021-08-11T09:53:47Z</time>
      </trkpt>
      <trkpt lat="44.39587" lon="4.1859">
        <ele>197.24</ele>
        <time>2021-08-11T09:54:00Z</time>
      </trkpt>
      <trkpt lat="44.39592" lon="4.18572">
        <ele>196.4</ele>
        <time>2021-08-11T09:54:15Z</time>
      </trkpt>
      <trkpt lat="44.39596" lon="4.18552">
        <ele>197.32</ele>
        <time>2021-08-11T09:54:29Z</time>
      </trkpt>
      <trkpt lat="44.39606" lon="4.18534">
        <ele>198.42</ele>
        <time>2021-08-11T09:54:43Z</time>
      </trkpt>
      <trkpt lat="44.39608" lon="4.18521">
        <ele>199.07</ele>
        <time>2021-08-11T09:54:57Z</time>
      </trkpt>
      <trkpt lat="44.39604" lon="4.18506">
        <ele>199.26</ele>
        <time>2021-08-11T09:55:11Z</time>
      </trkpt>
      <trkpt lat="44.39604" lon="4.18485">
        <ele>200.75</ele>
        <time>2021-08-11T09:55:26Z</time>
      </trkpt>
      <trkpt lat="44.39608" lon="4.18468">
        <ele>202.32</ele>
        <time>2021-08-11T09:55:37Z</time>
      </trkpt>
      <trkpt lat="44.39614" lon="4.18455">
        <ele>202.05</ele>
        <time>2021-08-11T09:55:53Z</time>
      </trkpt>
      <trkpt lat="44.39614" lon="4.18451">
        <ele>202.67</ele>
        <time>2021-08-11T09:55:55Z</time>
      </trkpt>
      <trkpt lat="44.39618" lon="4.18431">
        <ele>203.25</ele>
        <time>2021-08-11T09:56:09Z</time>
      </trkpt>
      <trkpt lat="44.39622" lon="4.18413">
        <ele>202.61</ele>
        <time>2021-08-11T09:56:22Z</time>
      </trkpt>
      <trkpt lat="44.39621" lon="4.18405">
        <ele>202.25</ele>
        <time>2021-08-11T09:56:28Z</time>
      </trkpt>
      <trkpt lat="44.39624" lon="4.18397">
        <ele>202.92</ele>
        <time>2021-08-11T09:56:33Z</time>
      </trkpt>
      <trkpt lat="44.39625" lon="4.18389">
        <ele>202.45</ele>
        <time>2021-08-11T09:56:38Z</time>
      </trkpt>
      <trkpt lat="44.39627" lon="4.18376">
        <ele>203.06</ele>
        <time>2021-08-11T09:56:49Z</time>
      </trkpt>
      <trkpt lat="44.39627" lon="4.18374">
        <ele>202.96</ele>
        <time>2021-08-11T09:56:50Z</time>
      </trkpt>
      <trkpt lat="44.39629" lon="4.1836">
        <ele>203.15</ele>
        <time>2021-08-11T09:57:00Z</time>
      </trkpt>
      <trkpt lat="44.39631" lon="4.18344">
        <ele>204.35</ele>
        <time>2021-08-11T09:57:13Z</time>
      </trkpt>
      <trkpt lat="44.39626" lon="4.18328">
        <ele>205.42</ele>
        <time>2021-08-11T09:57:26Z</time>
      </trkpt>
      <trkpt lat="44.39624" lon="4.18313">
        <ele>205.92</ele>
        <time>2021-08-11T09:57:37Z</time>
      </trkpt>
      <trkpt lat="44.39627" lon="4.18301">
        <ele>205.84</ele>
        <time>2021-08-11T09:57:51Z</time>
      </trkpt>
      <trkpt lat="44.3963" lon="4.18298">
        <ele>205.81</ele>
        <time>2021-08-11T09:57:56Z</time>
      </trkpt>
      <trkpt lat="44.3963" lon="4.18294">
        <ele>205.99</ele>
        <time>2021-08-11T09:58:14Z</time>
      </trkpt>
      <trkpt lat="44.39635" lon="4.18287">
        <ele>205.85</ele>
        <time>2021-08-11T09:58:29Z</time>
      </trkpt>
      <trkpt lat="44.39639" lon="4.18285">
        <ele>206.1</ele>
        <time>2021-08-11T09:58:41Z</time>
      </trkpt>
      <trkpt lat="44.39643" lon="4.18278">
        <ele>204.99</ele>
        <time>2021-08-11T09:58:50Z</time>
      </trkpt>
      <trkpt lat="44.39644" lon="4.18277">
        <ele>204.93</ele>
        <time>2021-08-11T09:59:07Z</time>
      </trkpt>
      <trkpt lat="44.39645" lon="4.18271">
        <ele>204.69</ele>
        <time>2021-08-11T09:59:20Z</time>
      </trkpt>
      <trkpt lat="44.39645" lon="4.18264">
        <ele>205.21</ele>
        <time>2021-08-11T09:59:35Z</time>
      </trkpt>
      <trkpt lat="44.39643" lon="4.18255">
        <ele>205.08</ele>
        <time>2021-08-11T09:59:53Z</time>
      </trkpt>
      <trkpt lat="44.39644" lon="4.18246">
        <ele>206.25</ele>
        <time>2021-08-11T10:00:05Z</time>
      </trkpt>
      <trkpt lat="44.39647" lon="4.18231">
        <ele>206.6</ele>
        <time>2021-08-11T10:00:19Z</time>
      </trkpt>
      <trkpt lat="44.39656" lon="4.18215">
        <ele>207.85</ele>
        <time>2021-08-11T10:00:32Z</time>
      </trkpt>
      <trkpt lat="44.39658" lon="4.18212">
        <ele>206.65</ele>
        <time>2021-08-11T10:00:34Z</time>
      </trkpt>
      <trkpt lat="44.3966" lon="4.18209">
        <ele>206.65</ele>
        <time>2021-08-11T10:00:36Z</time>
      </trkpt>
      <trkpt lat="44.39667" lon="4.18196">
        <ele>207.25</ele>
        <time>2021-08-11T10:00:48Z</time>
      </trkpt>
      <trkpt lat="44.39668" lon="4.18189">
        <ele>207.55</ele>
        <time>2021-08-11T10:01:01Z</time>
      </trkpt>
      <trkpt lat="44.39672" lon="4.18181">
        <ele>207.62</ele>
        <time>2021-08-11T10:01:09Z</time>
      </trkpt>
      <trkpt lat="44.39675" lon="4.18168">
        <ele>207.61</ele>
        <time>2021-08-11T10:01:20Z</time>
      </trkpt>
      <trkpt lat="44.39677" lon="4.18163">
        <ele>207.67</ele>
        <time>2021-08-11T10:01:24Z</time>
      </trkpt>
      <trkpt lat="44.39678" lon="4.18159">
        <ele>207.68</ele>
        <time>2021-08-11T10:01:27Z</time>
      </trkpt>
      <trkpt lat="44.3968" lon="4.18146">
        <ele>208.6</ele>
        <time>2021-08-11T10:01:41Z</time>
      </trkpt>
      <trkpt lat="44.39683" lon="4.18133">
        <ele>208.76</ele>
        <time>2021-08-11T10:01:54Z</time>
      </trkpt>
      <trkpt lat="44.39688" lon="4.18117">
        <ele>206.51</ele>
        <time>2021-08-11T10:02:08Z</time>
      </trkpt>
      <trkpt lat="44.39687" lon="4.181">
        <ele>204.84</ele>
        <time>2021-08-11T10:02:23Z</time>
      </trkpt>
      <trkpt lat="44.39689" lon="4.18096">
        <ele>205.12</ele>
        <time>2021-08-11T10:02:25Z</time>
      </trkpt>
      <trkpt lat="44.39693" lon="4.18071">
        <ele>204.35</ele>
        <time>2021-08-11T10:02:41Z</time>
      </trkpt>
      <trkpt lat="44.39694" lon="4.18059">
        <ele>203.98</ele>
        <time>2021-08-11T10:02:50Z</time>
      </trkpt>
      <trkpt lat="44.39695" lon="4.18052">
        <ele>203.92</ele>
        <time>2021-08-11T10:03:01Z</time>
      </trkpt>
      <trkpt lat="44.39695" lon="4.18038">
        <ele>203.42</ele>
        <time>2021-08-11T10:03:15Z</time>
      </trkpt>
      <trkpt lat="44.39693" lon="4.18032">
        <ele>203.07</ele>
        <time>2021-08-11T10:03:20Z</time>
      </trkpt>
      <trkpt lat="44.39686" lon="4.18019">
        <ele>202.32</ele>
        <time>2021-08-11T10:03:32Z</time>
      </trkpt>
      <trkpt lat="44.39682" lon="4.17996">
        <ele>201.5</ele>
        <time>2021-08-11T10:03:47Z</time>
      </trkpt>
      <trkpt lat="44.39681" lon="4.17975">
        <ele>200.03</ele>
        <time>2021-08-11T10:04:01Z</time>
      </trkpt>
      <trkpt lat="44.39679" lon="4.17958">
        <ele>198.69</ele>
        <time>2021-08-11T10:04:13Z</time>
      </trkpt>
      <trkpt lat="44.39675" lon="4.17941">
        <ele>199.47</ele>
        <time>2021-08-11T10:04:26Z</time>
      </trkpt>
      <trkpt lat="44.39667" lon="4.17928">
        <ele>199.53</ele>
        <time>2021-08-11T10:04:42Z</time>
      </trkpt>
      <trkpt lat="44.39662" lon="4.17906">
        <ele>199.64</ele>
        <time>2021-08-11T10:04:56Z</time>
      </trkpt>
      <trkpt lat="44.39661" lon="4.17891">
        <ele>200.72</ele>
        <time>2021-08-11T10:05:11Z</time>
      </trkpt>
      <trkpt lat="44.39659" lon="4.17883">
        <ele>200.13</ele>
        <time>2021-08-11T10:05:27Z</time>
      </trkpt>
      <trkpt lat="44.39652" lon="4.17879">
        <ele>198.41</ele>
        <time>2021-08-11T10:05:42Z</time>
      </trkpt>
      <trkpt lat="44.39642" lon="4.17876">
        <ele>197.07</ele>
        <time>2021-08-11T10:05:55Z</time>
      </trkpt>
      <trkpt lat="44.39637" lon="4.17875">
        <ele>196.91</ele>
        <time>2021-08-11T10:06:01Z</time>
      </trkpt>
      <trkpt lat="44.39632" lon="4.17868">
        <ele>196.41</ele>
        <time>2021-08-11T10:06:11Z</time>
      </trkpt>
      <trkpt lat="44.3962" lon="4.1786">
        <ele>196.03</ele>
        <time>2021-08-11T10:06:24Z</time>
      </trkpt>
      <trkpt lat="44.39606" lon="4.17848">
        <ele>196.89</ele>
        <time>2021-08-11T10:06:40Z</time>
      </trkpt>
      <trkpt lat="44.39591" lon="4.17844">
        <ele>196.78</ele>
        <time>2021-08-11T10:06:54Z</time>
      </trkpt>
      <trkpt lat="44.39587" lon="4.17843">
        <ele>196.47</ele>
        <time>2021-08-11T10:06:58Z</time>
      </trkpt>
      <trkpt lat="44.39572" lon="4.17836">
        <ele>196.15</ele>
        <time>2021-08-11T10:07:13Z</time>
      </trkpt>
      <trkpt lat="44.39564" lon="4.17827">
        <ele>196.21</ele>
        <time>2021-08-11T10:07:22Z</time>
      </trkpt>
      <trkpt lat="44.39552" lon="4.17823">
        <ele>196.02</ele>
        <time>2021-08-11T10:07:34Z</time>
      </trkpt>
      <trkpt lat="44.39547" lon="4.17821">
        <ele>195.62</ele>
        <time>2021-08-11T10:07:46Z</time>
      </trkpt>
      <trkpt lat="44.39539" lon="4.17814">
        <ele>195.63</ele>
        <time>2021-08-11T10:07:57Z</time>
      </trkpt>
      <trkpt lat="44.3953" lon="4.17808">
        <ele>195.55</ele>
        <time>2021-08-11T10:08:07Z</time>
      </trkpt>
      <trkpt lat="44.39514" lon="4.17798">
        <ele>194.95</ele>
        <time>2021-08-11T10:08:22Z</time>
      </trkpt>
      <trkpt lat="44.39506" lon="4.17803">
        <ele>193.61</ele>
        <time>2021-08-11T10:08:33Z</time>
      </trkpt>
      <trkpt lat="44.39503" lon="4.17814">
        <ele>194.03</ele>
        <time>2021-08-11T10:08:45Z</time>
      </trkpt>
      <trkpt lat="44.39498" lon="4.1782">
        <ele>193.97</ele>
        <time>2021-08-11T10:08:55Z</time>
      </trkpt>
      <trkpt lat="44.39492" lon="4.17829">
        <ele>193.31</ele>
        <time>2021-08-11T10:09:07Z</time>
      </trkpt>
      <trkpt lat="44.39491" lon="4.1783">
        <ele>192.95</ele>
        <time>2021-08-11T10:09:08Z</time>
      </trkpt>
      <trkpt lat="44.3948" lon="4.1784">
        <ele>193.62</ele>
        <time>2021-08-11T10:09:20Z</time>
      </trkpt>
      <trkpt lat="44.39473" lon="4.17844">
        <ele>193.51</ele>
        <time>2021-08-11T10:09:32Z</time>
      </trkpt>
      <trkpt lat="44.39464" lon="4.1785">
        <ele>193.57</ele>
        <time>2021-08-11T10:09:41Z</time>
      </trkpt>
      <trkpt lat="44.39447" lon="4.17854">
        <ele>194.32</ele>
        <time>2021-08-11T10:09:58Z</time>
      </trkpt>
      <trkpt lat="44.39435" lon="4.17851">
        <ele>193.45</ele>
        <time>2021-08-11T10:10:08Z</time>
      </trkpt>
      <trkpt lat="44.39421" lon="4.17845">
        <ele>192.97</ele>
        <time>2021-08-11T10:10:20Z</time>
      </trkpt>
      <trkpt lat="44.39416" lon="4.1783">
        <ele>193.21</ele>
        <time>2021-08-11T10:10:32Z</time>
      </trkpt>
      <trkpt lat="44.39408" lon="4.17823">
        <ele>193.41</ele>
        <time>2021-08-11T10:10:48Z</time>
      </trkpt>
      <trkpt lat="44.39395" lon="4.17816">
        <ele>193.48</ele>
        <time>2021-08-11T10:11:02Z</time>
      </trkpt>
      <trkpt lat="44.39381" lon="4.17816">
        <ele>192.95</ele>
        <time>2021-08-11T10:11:18Z</time>
      </trkpt>
      <trkpt lat="44.39376" lon="4.17813">
        <ele>192.7</ele>
        <time>2021-08-11T10:11:31Z</time>
      </trkpt>
      <trkpt lat="44.39368" lon="4.17807">
        <ele>192.14</ele>
        <time>2021-08-11T10:11:44Z</time>
      </trkpt>
      <trkpt lat="44.39366" lon="4.17793">
        <ele>192.94</ele>
        <time>2021-08-11T10:11:58Z</time>
      </trkpt>
      <trkpt lat="44.3936" lon="4.17781">
        <ele>193.19</ele>
        <time>2021-08-11T10:12:08Z</time>
      </trkpt>
      <trkpt lat="44.39356" lon="4.1778">
        <ele>191.51</ele>
        <time>2021-08-11T10:12:17Z</time>
      </trkpt>
      <trkpt lat="44.3935" lon="4.17775">
        <ele>193.54</ele>
        <time>2021-08-11T10:12:28Z</time>
      </trkpt>
      <trkpt lat="44.39349" lon="4.17773">
        <ele>193.37</ele>
        <time>2021-08-11T10:12:30Z</time>
      </trkpt>
      <trkpt lat="44.39344" lon="4.1777">
        <ele>193.12</ele>
        <time>2021-08-11T10:12:42Z</time>
      </trkpt>
      <trkpt lat="44.39339" lon="4.17772">
        <ele>194.14</ele>
        <time>2021-08-11T10:12:57Z</time>
      </trkpt>
      <trkpt lat="44.39329" lon="4.17772">
        <ele>195.64</ele>
        <time>2021-08-11T10:13:14Z</time>
      </trkpt>
      <trkpt lat="44.3932" lon="4.17769">
        <ele>195.3</ele>
        <time>2021-08-11T10:13:28Z</time>
      </trkpt>
      <trkpt lat="44.39313" lon="4.17763">
        <ele>195.33</ele>
        <time>2021-08-11T10:13:41Z</time>
      </trkpt>
      <trkpt lat="44.39309" lon="4.17765">
        <ele>195.1</ele>
        <time>2021-08-11T10:13:52Z</time>
      </trkpt>
      <trkpt lat="44.39303" lon="4.17769">
        <ele>195.47</ele>
        <time>2021-08-11T10:14:06Z</time>
      </trkpt>
      <trkpt lat="44.39294" lon="4.17774">
        <ele>196.21</ele>
        <time>2021-08-11T10:14:22Z</time>
      </trkpt>
      <trkpt lat="44.39286" lon="4.17779">
        <ele>198.07</ele>
        <time>2021-08-11T10:14:38Z</time>
      </trkpt>
      <trkpt lat="44.39276" lon="4.17783">
        <ele>200.84</ele>
        <time>2021-08-11T10:14:54Z</time>
      </trkpt>
      <trkpt lat="44.3926" lon="4.17787">
        <ele>202.1</ele>
        <time>2021-08-11T10:15:08Z</time>
      </trkpt>
      <trkpt lat="44.39254" lon="4.17788">
        <ele>202.08</ele>
        <time>2021-08-11T10:15:22Z</time>
      </trkpt>
      <trkpt lat="44.39253" lon="4.17789">
        <ele>202.34</ele>
        <time>2021-08-11T10:15:34Z</time>
      </trkpt>
      <trkpt lat="44.39246" lon="4.17791">
        <ele>203.14</ele>
        <time>2021-08-11T10:15:48Z</time>
      </trkpt>
      <trkpt lat="44.3924" lon="4.1779">
        <ele>203.11</ele>
        <time>2021-08-11T10:16:00Z</time>
      </trkpt>
      <trkpt lat="44.39234" lon="4.1779">
        <ele>203.06</ele>
        <time>2021-08-11T10:16:14Z</time>
      </trkpt>
      <trkpt lat="44.39226" lon="4.17794">
        <ele>201.77</ele>
        <time>2021-08-11T10:16:28Z</time>
      </trkpt>
      <trkpt lat="44.3922" lon="4.17792">
        <ele>201.22</ele>
        <time>2021-08-11T10:16:48Z</time>
      </trkpt>
      <trkpt lat="44.39208" lon="4.17796">
        <ele>200.31</ele>
        <time>2021-08-11T10:17:00Z</time>
      </trkpt>
      <trkpt lat="44.39203" lon="4.17803">
        <ele>199.3</ele>
        <time>2021-08-11T10:17:11Z</time>
      </trkpt>
      <trkpt lat="44.39198" lon="4.17812">
        <ele>198.98</ele>
        <time>2021-08-11T10:17:20Z</time>
      </trkpt>
      <trkpt lat="44.39195" lon="4.17817">
        <ele>200.29</ele>
        <time>2021-08-11T10:17:27Z</time>
      </trkpt>
      <trkpt lat="44.39195" lon="4.17827">
        <ele>199.4</ele>
        <time>2021-08-11T10:17:40Z</time>
      </trkpt>
      <trkpt lat="44.39203" lon="4.17836">
        <ele>198.75</ele>
        <time>2021-08-11T10:17:56Z</time>
      </trkpt>
      <trkpt lat="44.39203" lon="4.1784">
        <ele>196.36</ele>
        <time>2021-08-11T10:18:10Z</time>
      </trkpt>
      <trkpt lat="44.392" lon="4.17847">
        <ele>195.41</ele>
        <time>2021-08-11T10:18:28Z</time>
      </trkpt>
      <trkpt lat="44.39204" lon="4.17857">
        <ele>197.12</ele>
        <time>2021-08-11T10:18:42Z</time>
      </trkpt>
      <trkpt lat="44.39201" lon="4.17864">
        <ele>197.7</ele>
        <time>2021-08-11T10:18:54Z</time>
      </trkpt>
      <trkpt lat="44.392" lon="4.17866">
        <ele>196.46</ele>
        <time>2021-08-11T10:18:59Z</time>
      </trkpt>
      <trkpt lat="44.39199" lon="4.17873">
        <ele>194.37</ele>
        <time>2021-08-11T10:19:13Z</time>
      </trkpt>
      <trkpt lat="44.39199" lon="4.17875">
        <ele>193.86</ele>
        <time>2021-08-11T10:19:18Z</time>
      </trkpt>
      <trkpt lat="44.39198" lon="4.17877">
        <ele>193.49</ele>
        <time>2021-08-11T10:19:34Z</time>
      </trkpt>
      <trkpt lat="44.39197" lon="4.17878">
        <ele>193.2</ele>
        <time>2021-08-11T10:19:47Z</time>
      </trkpt>
      <trkpt lat="44.392" lon="4.17882">
        <ele>193.73</ele>
        <time>2021-08-11T10:20:07Z</time>
      </trkpt>
      <trkpt lat="44.3919" lon="4.17886">
        <ele>194.62</ele>
        <time>2021-08-11T10:20:21Z</time>
      </trkpt>
      <trkpt lat="44.3918" lon="4.17893">
        <ele>194.04</ele>
        <time>2021-08-11T10:20:36Z</time>
      </trkpt>
      <trkpt lat="44.39178" lon="4.17899">
        <ele>194.1</ele>
        <time>2021-08-11T10:20:52Z</time>
      </trkpt>
      <trkpt lat="44.39175" lon="4.17905">
        <ele>195.33</ele>
        <time>2021-08-11T10:21:13Z</time>
      </trkpt>
      <trkpt lat="44.39171" lon="4.17903">
        <ele>194.99</ele>
        <time>2021-08-11T10:21:30Z</time>
      </trkpt>
      <trkpt lat="44.39165" lon="4.17901">
        <ele>193.47</ele>
        <time>2021-08-11T10:21:42Z</time>
      </trkpt>
      <trkpt lat="44.39155" lon="4.17903">
        <ele>193</ele>
        <time>2021-08-11T10:21:56Z</time>
      </trkpt>
      <trkpt lat="44.3915" lon="4.17911">
        <ele>194.48</ele>
        <time>2021-08-11T10:22:10Z</time>
      </trkpt>
      <trkpt lat="44.3915" lon="4.17916">
        <ele>194.72</ele>
        <time>2021-08-11T10:22:20Z</time>
      </trkpt>
      <trkpt lat="44.39146" lon="4.17923">
        <ele>195.24</ele>
        <time>2021-08-11T10:22:39Z</time>
      </trkpt>
      <trkpt lat="44.39142" lon="4.17927">
        <ele>196.25</ele>
        <time>2021-08-11T10:22:54Z</time>
      </trkpt>
      <trkpt lat="44.3914" lon="4.1793">
        <ele>195.97</ele>
        <time>2021-08-11T10:23:09Z</time>
      </trkpt>
      <trkpt lat="44.39143" lon="4.17938">
        <ele>195.79</ele>
        <time>2021-08-11T10:23:22Z</time>
      </trkpt>
      <trkpt lat="44.39138" lon="4.17949">
        <ele>193.65</ele>
        <time>2021-08-11T10:23:36Z</time>
      </trkpt>
      <trkpt lat="44.39136" lon="4.17955">
        <ele>193.4</ele>
        <time>2021-08-11T10:23:49Z</time>
      </trkpt>
      <trkpt lat="44.39136" lon="4.17956">
        <ele>193.66</ele>
        <time>2021-08-11T10:24:11Z</time>
      </trkpt>
      <trkpt lat="44.39134" lon="4.1796">
        <ele>194.13</ele>
        <time>2021-08-11T10:24:28Z</time>
      </trkpt>
      <trkpt lat="44.39136" lon="4.17953">
        <ele>193.98</ele>
        <time>2021-08-11T10:24:42Z</time>
      </trkpt>
      <trkpt lat="44.39135" lon="4.17955">
        <ele>194.18</ele>
        <time>2021-08-11T10:24:54Z</time>
      </trkpt>
      <trkpt lat="44.39131" lon="4.17955">
        <ele>195.19</ele>
        <time>2021-08-11T10:25:06Z</time>
      </trkpt>
      <trkpt lat="44.39132" lon="4.17956">
        <ele>194.09</ele>
        <time>2021-08-11T10:25:20Z</time>
      </trkpt>
      <trkpt lat="44.39137" lon="4.17966">
        <ele>194.07</ele>
        <time>2021-08-11T10:25:35Z</time>
      </trkpt>
      <trkpt lat="44.39136" lon="4.17972">
        <ele>194.93</ele>
        <time>2021-08-11T10:25:47Z</time>
      </trkpt>
      <trkpt lat="44.39136" lon="4.17973">
        <ele>194.75</ele>
        <time>2021-08-11T10:25:49Z</time>
      </trkpt>
      <trkpt lat="44.39138" lon="4.17984">
        <ele>194.62</ele>
        <time>2021-08-11T10:26:00Z</time>
      </trkpt>
      <trkpt lat="44.39137" lon="4.17987">
        <ele>194.61</ele>
        <time>2021-08-11T10:26:18Z</time>
      </trkpt>
      <trkpt lat="44.39135" lon="4.1799">
        <ele>196.54</ele>
        <time>2021-08-11T10:26:42Z</time>
      </trkpt>
      <trkpt lat="44.39132" lon="4.17997">
        <ele>198.9</ele>
        <time>2021-08-11T10:26:57Z</time>
      </trkpt>
      <trkpt lat="44.39133" lon="4.17998">
        <ele>199.01</ele>
        <time>2021-08-11T10:26:59Z</time>
      </trkpt>
      <trkpt lat="44.39138" lon="4.18015">
        <ele>198.59</ele>
        <time>2021-08-11T10:27:13Z</time>
      </trkpt>
      <trkpt lat="44.39149" lon="4.18022">
        <ele>198.97</ele>
        <time>2021-08-11T10:27:24Z</time>
      </trkpt>
      <trkpt lat="44.3915" lon="4.18032">
        <ele>199.29</ele>
        <time>2021-08-11T10:27:35Z</time>
      </trkpt>
      <trkpt lat="44.39142" lon="4.18033">
        <ele>199.7</ele>
        <time>2021-08-11T10:27:47Z</time>
      </trkpt>
      <trkpt lat="44.39138" lon="4.18036">
        <ele>199.92</ele>
        <time>2021-08-11T10:28:02Z</time>
      </trkpt>
      <trkpt lat="44.3914" lon="4.18035">
        <ele>200.57</ele>
        <time>2021-08-11T10:28:21Z</time>
      </trkpt>
      <trkpt lat="44.3914" lon="4.18035">
        <ele>200.38</ele>
        <time>2021-08-11T10:28:45Z</time>
      </trkpt>
      <trkpt lat="44.39137" lon="4.18037">
        <ele>200.12</ele>
        <time>2021-08-11T10:29:07Z</time>
      </trkpt>
      <trkpt lat="44.3913" lon="4.18035">
        <ele>202.72</ele>
        <time>2021-08-11T10:29:25Z</time>
      </trkpt>
      <trkpt lat="44.39122" lon="4.18031">
        <ele>204.86</ele>
        <time>2021-08-11T10:29:43Z</time>
      </trkpt>
      <trkpt lat="44.39111" lon="4.18029">
        <ele>207.47</ele>
        <time>2021-08-11T10:29:58Z</time>
      </trkpt>
      <trkpt lat="44.39103" lon="4.18023">
        <ele>208.22</ele>
        <time>2021-08-11T10:30:10Z</time>
      </trkpt>
      <trkpt lat="44.39098" lon="4.18006">
        <ele>208.53</ele>
        <time>2021-08-11T10:30:24Z</time>
      </trkpt>
      <trkpt lat="44.39092" lon="4.17995">
        <ele>209.23</ele>
        <time>2021-08-11T10:30:35Z</time>
      </trkpt>
      <trkpt lat="44.39092" lon="4.17981">
        <ele>208.41</ele>
        <time>2021-08-11T10:30:46Z</time>
      </trkpt>
      <trkpt lat="44.39091" lon="4.17974">
        <ele>209.58</ele>
        <time>2021-08-11T10:30:51Z</time>
      </trkpt>
      <trkpt lat="44.39089" lon="4.17959">
        <ele>210.02</ele>
        <time>2021-08-11T10:31:03Z</time>
      </trkpt>
      <trkpt lat="44.39082" lon="4.17948">
        <ele>211.78</ele>
        <time>2021-08-11T10:31:17Z</time>
      </trkpt>
      <trkpt lat="44.39082" lon="4.17947">
        <ele>211.89</ele>
        <time>2021-08-11T10:31:18Z</time>
      </trkpt>
      <trkpt lat="44.39077" lon="4.1794">
        <ele>212.02</ele>
        <time>2021-08-11T10:31:23Z</time>
      </trkpt>
      <trkpt lat="44.39068" lon="4.17924">
        <ele>211.32</ele>
        <time>2021-08-11T10:31:36Z</time>
      </trkpt>
      <trkpt lat="44.39064" lon="4.17916">
        <ele>211.27</ele>
        <time>2021-08-11T10:31:45Z</time>
      </trkpt>
      <trkpt lat="44.39056" lon="4.1791">
        <ele>211.22</ele>
        <time>2021-08-11T10:31:55Z</time>
      </trkpt>
      <trkpt lat="44.39046" lon="4.17906">
        <ele>212.12</ele>
        <time>2021-08-11T10:32:05Z</time>
      </trkpt>
      <trkpt lat="44.39036" lon="4.17908">
        <ele>213.29</ele>
        <time>2021-08-11T10:32:19Z</time>
      </trkpt>
      <trkpt lat="44.39031" lon="4.17908">
        <ele>214.5</ele>
        <time>2021-08-11T10:32:33Z</time>
      </trkpt>
      <trkpt lat="44.3903" lon="4.17905">
        <ele>214.89</ele>
        <time>2021-08-11T10:32:49Z</time>
      </trkpt>
      <trkpt lat="44.39028" lon="4.17903">
        <ele>214.51</ele>
        <time>2021-08-11T10:33:07Z</time>
      </trkpt>
      <trkpt lat="44.39028" lon="4.17892">
        <ele>214.83</ele>
        <time>2021-08-11T10:33:20Z</time>
      </trkpt>
      <trkpt lat="44.39017" lon="4.17879">
        <ele>214.58</ele>
        <time>2021-08-11T10:33:32Z</time>
      </trkpt>
      <trkpt lat="44.39005" lon="4.17864">
        <ele>213.76</ele>
        <time>2021-08-11T10:33:46Z</time>
      </trkpt>
      <trkpt lat="44.39002" lon="4.17859">
        <ele>214.03</ele>
        <time>2021-08-11T10:33:50Z</time>
      </trkpt>
      <trkpt lat="44.3899" lon="4.17844">
        <ele>213.47</ele>
        <time>2021-08-11T10:34:04Z</time>
      </trkpt>
      <trkpt lat="44.38991" lon="4.17838">
        <ele>213.28</ele>
        <time>2021-08-11T10:34:12Z</time>
      </trkpt>
      <trkpt lat="44.38998" lon="4.17831">
        <ele>211.92</ele>
        <time>2021-08-11T10:34:22Z</time>
      </trkpt>
      <trkpt lat="44.39001" lon="4.17828">
        <ele>211.97</ele>
        <time>2021-08-11T10:34:25Z</time>
      </trkpt>
      <trkpt lat="44.39012" lon="4.17823">
        <ele>211.98</ele>
        <time>2021-08-11T10:34:38Z</time>
      </trkpt>
      <trkpt lat="44.39015" lon="4.1782">
        <ele>211.98</ele>
        <time>2021-08-11T10:34:41Z</time>
      </trkpt>
      <trkpt lat="44.39021" lon="4.17803">
        <ele>211.39</ele>
        <time>2021-08-11T10:34:53Z</time>
      </trkpt>
      <trkpt lat="44.39026" lon="4.17787">
        <ele>212.61</ele>
        <time>2021-08-11T10:35:04Z</time>
      </trkpt>
      <trkpt lat="44.39028" lon="4.17779">
        <ele>212.99</ele>
        <time>2021-08-11T10:35:19Z</time>
      </trkpt>
      <trkpt lat="44.39032" lon="4.17771">
        <ele>212.82</ele>
        <time>2021-08-11T10:35:34Z</time>
      </trkpt>
      <trkpt lat="44.39034" lon="4.17759">
        <ele>213.1</ele>
        <time>2021-08-11T10:35:44Z</time>
      </trkpt>
      <trkpt lat="44.39028" lon="4.17744">
        <ele>212.07</ele>
        <time>2021-08-11T10:35:57Z</time>
      </trkpt>
      <trkpt lat="44.39026" lon="4.17743">
        <ele>211.48</ele>
        <time>2021-08-11T10:35:59Z</time>
      </trkpt>
      <trkpt lat="44.39014" lon="4.17733">
        <ele>211.06</ele>
        <time>2021-08-11T10:36:13Z</time>
      </trkpt>
      <trkpt lat="44.39012" lon="4.1772">
        <ele>209.89</ele>
        <time>2021-08-11T10:36:26Z</time>
      </trkpt>
      <trkpt lat="44.39019" lon="4.17715">
        <ele>209.91</ele>
        <time>2021-08-11T10:36:34Z</time>
      </trkpt>
      <trkpt lat="44.39028" lon="4.17711">
        <ele>209.14</ele>
        <time>2021-08-11T10:36:47Z</time>
      </trkpt>
      <trkpt lat="44.39035" lon="4.1771">
        <ele>209.14</ele>
        <time>2021-08-11T10:37:02Z</time>
      </trkpt>
      <trkpt lat="44.3904" lon="4.17709">
        <ele>208.35</ele>
        <time>2021-08-11T10:37:18Z</time>
      </trkpt>
      <trkpt lat="44.39045" lon="4.17706">
        <ele>207.56</ele>
        <time>2021-08-11T10:37:37Z</time>
      </trkpt>
      <trkpt lat="44.39047" lon="4.177">
        <ele>206.19</ele>
        <time>2021-08-11T10:37:51Z</time>
      </trkpt>
      <trkpt lat="44.39058" lon="4.17697">
        <ele>203.63</ele>
        <time>2021-08-11T10:38:05Z</time>
      </trkpt>
      <trkpt lat="44.3907" lon="4.177">
        <ele>202.53</ele>
        <time>2021-08-11T10:38:18Z</time>
      </trkpt>
      <trkpt lat="44.39077" lon="4.17698">
        <ele>200.97</ele>
        <time>2021-08-11T10:38:32Z</time>
      </trkpt>
      <trkpt lat="44.39083" lon="4.17699">
        <ele>199</ele>
        <time>2021-08-11T10:38:49Z</time>
      </trkpt>
      <trkpt lat="44.39095" lon="4.17691">
        <ele>196.02</ele>
        <time>2021-08-11T10:39:04Z</time>
      </trkpt>
      <trkpt lat="44.39105" lon="4.17689">
        <ele>193.31</ele>
        <time>2021-08-11T10:39:18Z</time>
      </trkpt>
      <trkpt lat="44.3912" lon="4.17688">
        <ele>192.12</ele>
        <time>2021-08-11T10:39:32Z</time>
      </trkpt>
      <trkpt lat="44.39131" lon="4.17694">
        <ele>192.72</ele>
        <time>2021-08-11T10:39:46Z</time>
      </trkpt>
      <trkpt lat="44.39145" lon="4.17695">
        <ele>192.93</ele>
        <time>2021-08-11T10:40:00Z</time>
      </trkpt>
      <trkpt lat="44.39152" lon="4.17699">
        <ele>193.09</ele>
        <time>2021-08-11T10:40:10Z</time>
      </trkpt>
      <trkpt lat="44.3916" lon="4.17696">
        <ele>194.5</ele>
        <time>2021-08-11T10:40:26Z</time>
      </trkpt>
      <trkpt lat="44.39167" lon="4.17694">
        <ele>196.18</ele>
        <time>2021-08-11T10:40:39Z</time>
      </trkpt>
      <trkpt lat="44.39176" lon="4.17691">
        <ele>196.78</ele>
        <time>2021-08-11T10:40:52Z</time>
      </trkpt>
      <trkpt lat="44.39182" lon="4.17692">
        <ele>199.17</ele>
        <time>2021-08-11T10:41:07Z</time>
      </trkpt>
      <trkpt lat="44.39181" lon="4.17694">
        <ele>198.98</ele>
        <time>2021-08-11T10:41:21Z</time>
      </trkpt>
      <trkpt lat="44.39189" lon="4.17687">
        <ele>200.46</ele>
        <time>2021-08-11T10:41:39Z</time>
      </trkpt>
      <trkpt lat="44.39194" lon="4.17685">
        <ele>201.55</ele>
        <time>2021-08-11T10:41:53Z</time>
      </trkpt>
      <trkpt lat="44.39198" lon="4.17682">
        <ele>202.17</ele>
        <time>2021-08-11T10:42:05Z</time>
      </trkpt>
      <trkpt lat="44.39198" lon="4.17677">
        <ele>201.96</ele>
        <time>2021-08-11T10:42:20Z</time>
      </trkpt>
      <trkpt lat="44.39195" lon="4.17681">
        <ele>200.54</ele>
        <time>2021-08-11T10:42:36Z</time>
      </trkpt>
      <trkpt lat="44.39193" lon="4.17685">
        <ele>198.56</ele>
        <time>2021-08-11T10:42:50Z</time>
      </trkpt>
      <trkpt lat="44.39189" lon="4.17687">
        <ele>199.54</ele>
        <time>2021-08-11T10:42:56Z</time>
      </trkpt>
      <trkpt lat="44.39186" lon="4.17692">
        <ele>199.63</ele>
        <time>2021-08-11T10:43:14Z</time>
      </trkpt>
      <trkpt lat="44.39185" lon="4.17693">
        <ele>199.36</ele>
        <time>2021-08-11T10:43:29Z</time>
      </trkpt>
      <trkpt lat="44.39185" lon="4.1769">
        <ele>200.08</ele>
        <time>2021-08-11T10:43:49Z</time>
      </trkpt>
      <trkpt lat="44.39193" lon="4.17686">
        <ele>201.5</ele>
        <time>2021-08-11T10:44:03Z</time>
      </trkpt>
      <trkpt lat="44.39199" lon="4.17678">
        <ele>203.39</ele>
        <time>2021-08-11T10:44:16Z</time>
      </trkpt>
      <trkpt lat="44.39194" lon="4.1767">
        <ele>204.26</ele>
        <time>2021-08-11T10:44:26Z</time>
      </trkpt>
      <trkpt lat="44.39187" lon="4.1767">
        <ele>204.13</ele>
        <time>2021-08-11T10:44:37Z</time>
      </trkpt>
      <trkpt lat="44.39183" lon="4.17671">
        <ele>204</ele>
        <time>2021-08-11T10:44:49Z</time>
      </trkpt>
      <trkpt lat="44.39176" lon="4.17671">
        <ele>202.8</ele>
        <time>2021-08-11T10:45:01Z</time>
      </trkpt>
      <trkpt lat="44.39168" lon="4.1767">
        <ele>200.48</ele>
        <time>2021-08-11T10:45:11Z</time>
      </trkpt>
      <trkpt lat="44.39164" lon="4.1767">
        <ele>200.31</ele>
        <time>2021-08-11T10:45:18Z</time>
      </trkpt>
      <trkpt lat="44.39155" lon="4.17668">
        <ele>199.75</ele>
        <time>2021-08-11T10:45:29Z</time>
      </trkpt>
      <trkpt lat="44.39154" lon="4.17662">
        <ele>199.38</ele>
        <time>2021-08-11T10:45:41Z</time>
      </trkpt>
      <trkpt lat="44.39157" lon="4.17652">
        <ele>200.49</ele>
        <time>2021-08-11T10:45:54Z</time>
      </trkpt>
      <trkpt lat="44.39158" lon="4.1765">
        <ele>200.01</ele>
        <time>2021-08-11T10:46:13Z</time>
      </trkpt>
      <trkpt lat="44.39151" lon="4.17637">
        <ele>201.12</ele>
        <time>2021-08-11T10:46:27Z</time>
      </trkpt>
      <trkpt lat="44.39145" lon="4.17623">
        <ele>201.75</ele>
        <time>2021-08-11T10:46:39Z</time>
      </trkpt>
      <trkpt lat="44.39147" lon="4.17611">
        <ele>201.26</ele>
        <time>2021-08-11T10:46:53Z</time>
      </trkpt>
      <trkpt lat="44.39151" lon="4.17601">
        <ele>200.03</ele>
        <time>2021-08-11T10:47:03Z</time>
      </trkpt>
      <trkpt lat="44.39153" lon="4.17592">
        <ele>200.09</ele>
        <time>2021-08-11T10:47:12Z</time>
      </trkpt>
      <trkpt lat="44.39157" lon="4.17574">
        <ele>198.81</ele>
        <time>2021-08-11T10:47:26Z</time>
      </trkpt>
      <trkpt lat="44.39157" lon="4.17564">
        <ele>197.24</ele>
        <time>2021-08-11T10:47:39Z</time>
      </trkpt>
      <trkpt lat="44.39157" lon="4.17561">
        <ele>197.12</ele>
        <time>2021-08-11T10:47:45Z</time>
      </trkpt>
      <trkpt lat="44.3915" lon="4.17542">
        <ele>196.48</ele>
        <time>2021-08-11T10:47:56Z</time>
      </trkpt>
      <trkpt lat="44.39142" lon="4.17533">
        <ele>196.89</ele>
        <time>2021-08-11T10:48:07Z</time>
      </trkpt>
      <trkpt lat="44.39136" lon="4.17527">
        <ele>198.07</ele>
        <time>2021-08-11T10:48:18Z</time>
      </trkpt>
      <trkpt lat="44.39131" lon="4.17522">
        <ele>200.2</ele>
        <time>2021-08-11T10:48:36Z</time>
      </trkpt>
      <trkpt lat="44.39127" lon="4.17521">
        <ele>201.03</ele>
        <time>2021-08-11T10:48:57Z</time>
      </trkpt>
      <trkpt lat="44.39117" lon="4.17527">
        <ele>202.31</ele>
        <time>2021-08-11T10:49:10Z</time>
      </trkpt>
      <trkpt lat="44.39109" lon="4.17522">
        <ele>203.35</ele>
        <time>2021-08-11T10:49:22Z</time>
      </trkpt>
      <trkpt lat="44.39105" lon="4.17521">
        <ele>203.26</ele>
        <time>2021-08-11T10:49:33Z</time>
      </trkpt>
      <trkpt lat="44.39105" lon="4.1752">
        <ele>203.02</ele>
        <time>2021-08-11T10:49:34Z</time>
      </trkpt>
      <trkpt lat="44.39101" lon="4.17505">
        <ele>203.07</ele>
        <time>2021-08-11T10:49:45Z</time>
      </trkpt>
      <trkpt lat="44.39094" lon="4.17498">
        <ele>202.44</ele>
        <time>2021-08-11T10:50:02Z</time>
      </trkpt>
      <trkpt lat="44.39099" lon="4.17483">
        <ele>200.81</ele>
        <time>2021-08-11T10:50:15Z</time>
      </trkpt>
      <trkpt lat="44.39107" lon="4.17473">
        <ele>200.45</ele>
        <time>2021-08-11T10:50:27Z</time>
      </trkpt>
      <trkpt lat="44.39113" lon="4.17464">
        <ele>200.71</ele>
        <time>2021-08-11T10:50:40Z</time>
      </trkpt>
      <trkpt lat="44.39119" lon="4.1745">
        <ele>201.74</ele>
        <time>2021-08-11T10:50:53Z</time>
      </trkpt>
      <trkpt lat="44.39121" lon="4.1744">
        <ele>202.46</ele>
        <time>2021-08-11T10:51:04Z</time>
      </trkpt>
      <trkpt lat="44.39118" lon="4.17432">
        <ele>203.83</ele>
        <time>2021-08-11T10:51:18Z</time>
      </trkpt>
      <trkpt lat="44.39115" lon="4.17425">
        <ele>203.86</ele>
        <time>2021-08-11T10:51:28Z</time>
      </trkpt>
      <trkpt lat="44.39117" lon="4.17419">
        <ele>204.5</ele>
        <time>2021-08-11T10:51:48Z</time>
      </trkpt>
      <trkpt lat="44.39118" lon="4.17414">
        <ele>204.47</ele>
        <time>2021-08-11T10:52:04Z</time>
      </trkpt>
      <trkpt lat="44.39118" lon="4.17411">
        <ele>204.21</ele>
        <time>2021-08-11T10:52:24Z</time>
      </trkpt>
      <trkpt lat="44.39118" lon="4.17409">
        <ele>204.18</ele>
        <time>2021-08-11T10:52:41Z</time>
      </trkpt>
      <trkpt lat="44.39112" lon="4.17397">
        <ele>204.68</ele>
        <time>2021-08-11T10:52:57Z</time>
      </trkpt>
      <trkpt lat="44.39109" lon="4.17387">
        <ele>204.33</ele>
        <time>2021-08-11T10:53:07Z</time>
      </trkpt>
      <trkpt lat="44.39115" lon="4.17383">
        <ele>204.66</ele>
        <time>2021-08-11T10:53:20Z</time>
      </trkpt>
      <trkpt lat="44.39118" lon="4.17383">
        <ele>205.26</ele>
        <time>2021-08-11T10:53:23Z</time>
      </trkpt>
      <trkpt lat="44.39122" lon="4.17382">
        <ele>206.66</ele>
        <time>2021-08-11T10:53:36Z</time>
      </trkpt>
      <trkpt lat="44.39125" lon="4.1738">
        <ele>207.98</ele>
        <time>2021-08-11T10:53:47Z</time>
      </trkpt>
      <trkpt lat="44.39132" lon="4.17373">
        <ele>209.87</ele>
        <time>2021-08-11T10:54:01Z</time>
      </trkpt>
      <trkpt lat="44.3914" lon="4.17373">
        <ele>212.61</ele>
        <time>2021-08-11T10:54:15Z</time>
      </trkpt>
      <trkpt lat="44.39146" lon="4.17367">
        <ele>214.08</ele>
        <time>2021-08-11T10:54:33Z</time>
      </trkpt>
      <trkpt lat="44.39154" lon="4.17355">
        <ele>215.79</ele>
        <time>2021-08-11T10:54:49Z</time>
      </trkpt>
      <trkpt lat="44.39155" lon="4.17354">
        <ele>215.94</ele>
        <time>2021-08-11T10:54:50Z</time>
      </trkpt>
      <trkpt lat="44.39158" lon="4.17345">
        <ele>216.91</ele>
        <time>2021-08-11T10:55:02Z</time>
      </trkpt>
      <trkpt lat="44.39162" lon="4.17336">
        <ele>217.91</ele>
        <time>2021-08-11T10:55:16Z</time>
      </trkpt>
      <trkpt lat="44.39172" lon="4.17323">
        <ele>219.22</ele>
        <time>2021-08-11T10:55:31Z</time>
      </trkpt>
      <trkpt lat="44.39182" lon="4.17314">
        <ele>221.76</ele>
        <time>2021-08-11T10:55:46Z</time>
      </trkpt>
      <trkpt lat="44.39188" lon="4.17308">
        <ele>223.33</ele>
        <time>2021-08-11T10:55:56Z</time>
      </trkpt>
      <trkpt lat="44.39198" lon="4.17303">
        <ele>225.47</ele>
        <time>2021-08-11T10:56:13Z</time>
      </trkpt>
      <trkpt lat="44.39208" lon="4.17299">
        <ele>227.47</ele>
        <time>2021-08-11T10:56:26Z</time>
      </trkpt>
      <trkpt lat="44.39218" lon="4.17304">
        <ele>228.5</ele>
        <time>2021-08-11T10:56:42Z</time>
      </trkpt>
      <trkpt lat="44.39236" lon="4.17317">
        <ele>226.45</ele>
        <time>2021-08-11T10:57:00Z</time>
      </trkpt>
      <trkpt lat="44.39247" lon="4.17319">
        <ele>226.01</ele>
        <time>2021-08-11T10:57:13Z</time>
      </trkpt>
      <trkpt lat="44.3926" lon="4.17318">
        <ele>223.38</ele>
        <time>2021-08-11T10:57:30Z</time>
      </trkpt>
      <trkpt lat="44.39274" lon="4.17318">
        <ele>224.4</ele>
        <time>2021-08-11T10:57:44Z</time>
      </trkpt>
      <trkpt lat="44.39283" lon="4.17312">
        <ele>225.12</ele>
        <time>2021-08-11T10:57:58Z</time>
      </trkpt>
      <trkpt lat="44.39286" lon="4.173">
        <ele>227.24</ele>
        <time>2021-08-11T10:58:14Z</time>
      </trkpt>
      <trkpt lat="44.39295" lon="4.17296">
        <ele>229.51</ele>
        <time>2021-08-11T10:58:32Z</time>
      </trkpt>
      <trkpt lat="44.39303" lon="4.17296">
        <ele>231.11</ele>
        <time>2021-08-11T10:58:46Z</time>
      </trkpt>
      <trkpt lat="44.39315" lon="4.17301">
        <ele>232.95</ele>
        <time>2021-08-11T10:59:01Z</time>
      </trkpt>
      <trkpt lat="44.39327" lon="4.17301">
        <ele>232.9</ele>
        <time>2021-08-11T10:59:14Z</time>
      </trkpt>
      <trkpt lat="44.39337" lon="4.17299">
        <ele>232.42</ele>
        <time>2021-08-11T10:59:25Z</time>
      </trkpt>
      <trkpt lat="44.39338" lon="4.17288">
        <ele>232.75</ele>
        <time>2021-08-11T10:59:39Z</time>
      </trkpt>
      <trkpt lat="44.39345" lon="4.17275">
        <ele>232.9</ele>
        <time>2021-08-11T10:59:48Z</time>
      </trkpt>
      <trkpt lat="44.39353" lon="4.17268">
        <ele>232.59</ele>
        <time>2021-08-11T10:59:54Z</time>
      </trkpt>
      <trkpt lat="44.39362" lon="4.17267">
        <ele>231.17</ele>
        <time>2021-08-11T11:00:06Z</time>
      </trkpt>
      <trkpt lat="44.39364" lon="4.17267">
        <ele>231.17</ele>
        <time>2021-08-11T11:00:07Z</time>
      </trkpt>
      <trkpt lat="44.39373" lon="4.17265">
        <ele>229.81</ele>
        <time>2021-08-11T11:00:16Z</time>
      </trkpt>
      <trkpt lat="44.39381" lon="4.1726">
        <ele>229.28</ele>
        <time>2021-08-11T11:00:28Z</time>
      </trkpt>
      <trkpt lat="44.39391" lon="4.17246">
        <ele>228.86</ele>
        <time>2021-08-11T11:00:39Z</time>
      </trkpt>
      <trkpt lat="44.39402" lon="4.1723">
        <ele>228.95</ele>
        <time>2021-08-11T11:00:51Z</time>
      </trkpt>
      <trkpt lat="44.39405" lon="4.17226">
        <ele>228.53</ele>
        <time>2021-08-11T11:00:54Z</time>
      </trkpt>
      <trkpt lat="44.39413" lon="4.17215">
        <ele>228.93</ele>
        <time>2021-08-11T11:01:04Z</time>
      </trkpt>
      <trkpt lat="44.39413" lon="4.17214">
        <ele>228.68</ele>
        <time>2021-08-11T11:01:05Z</time>
      </trkpt>
      <trkpt lat="44.39414" lon="4.1721">
        <ele>228.88</ele>
        <time>2021-08-11T11:01:08Z</time>
      </trkpt>
      <trkpt lat="44.39423" lon="4.17196">
        <ele>227.88</ele>
        <time>2021-08-11T11:01:21Z</time>
      </trkpt>
      <trkpt lat="44.39432" lon="4.17192">
        <ele>225.59</ele>
        <time>2021-08-11T11:01:31Z</time>
      </trkpt>
      <trkpt lat="44.39434" lon="4.17192">
        <ele>225.53</ele>
        <time>2021-08-11T11:01:33Z</time>
      </trkpt>
      <trkpt lat="44.3944" lon="4.17193">
        <ele>224.21</ele>
        <time>2021-08-11T11:01:39Z</time>
      </trkpt>
      <trkpt lat="44.39452" lon="4.17195">
        <ele>222.39</ele>
        <time>2021-08-11T11:01:51Z</time>
      </trkpt>
      <trkpt lat="44.39453" lon="4.17192">
        <ele>221.71</ele>
        <time>2021-08-11T11:01:54Z</time>
      </trkpt>
      <trkpt lat="44.39462" lon="4.17184">
        <ele>219.67</ele>
        <time>2021-08-11T11:02:05Z</time>
      </trkpt>
      <trkpt lat="44.39467" lon="4.17184">
        <ele>219.43</ele>
        <time>2021-08-11T11:02:10Z</time>
      </trkpt>
      <trkpt lat="44.39479" lon="4.17184">
        <ele>217.44</ele>
        <time>2021-08-11T11:02:21Z</time>
      </trkpt>
      <trkpt lat="44.39489" lon="4.17176">
        <ele>215.54</ele>
        <time>2021-08-11T11:02:32Z</time>
      </trkpt>
      <trkpt lat="44.39495" lon="4.17169">
        <ele>214.44</ele>
        <time>2021-08-11T11:02:40Z</time>
      </trkpt>
      <trkpt lat="44.39507" lon="4.17162">
        <ele>212.62</ele>
        <time>2021-08-11T11:02:51Z</time>
      </trkpt>
      <trkpt lat="44.39511" lon="4.17151">
        <ele>212.25</ele>
        <time>2021-08-11T11:03:03Z</time>
      </trkpt>
      <trkpt lat="44.39523" lon="4.17136">
        <ele>212.27</ele>
        <time>2021-08-11T11:03:18Z</time>
      </trkpt>
      <trkpt lat="44.39526" lon="4.17131">
        <ele>212.66</ele>
        <time>2021-08-11T11:03:32Z</time>
      </trkpt>
      <trkpt lat="44.39531" lon="4.17128">
        <ele>212.28</ele>
        <time>2021-08-11T11:03:52Z</time>
      </trkpt>
      <trkpt lat="44.39542" lon="4.1712">
        <ele>211.41</ele>
        <time>2021-08-11T11:04:08Z</time>
      </trkpt>
      <trkpt lat="44.39552" lon="4.17109">
        <ele>209.98</ele>
        <time>2021-08-11T11:04:22Z</time>
      </trkpt>
      <trkpt lat="44.39565" lon="4.17103">
        <ele>209.61</ele>
        <time>2021-08-11T11:04:33Z</time>
      </trkpt>
      <trkpt lat="44.39575" lon="4.17108">
        <ele>208.62</ele>
        <time>2021-08-11T11:04:46Z</time>
      </trkpt>
      <trkpt lat="44.39579" lon="4.17119">
        <ele>208.99</ele>
        <time>2021-08-11T11:04:56Z</time>
      </trkpt>
      <trkpt lat="44.39587" lon="4.17129">
        <ele>208.95</ele>
        <time>2021-08-11T11:05:07Z</time>
      </trkpt>
    </trkseg>
  </trk>
</gpx>